Time,TemperatureF,DewpointF,PressureIn,WindDirection,WindDirectionDegrees,WindSpeedMPH,WindSpeedGustMPH,Humidity,HourlyPrecipIn,Conditions,Clouds,dailyrainin,SoftwareType,DateUTC
2013-03-02 00:00:00,24.8,17.6,30.11,NNE,13,0.0,0.0,73,0.00,,,0.00,VWS V14.01,2013-03-02 05:00:00,
2013-03-02 00:01:00,24.9,17.4,30.11,NE,49,0.0,0.0,73,0.00,,,0.00,VWS V14.01,2013-03-02 05:01:00,
2013-03-02 00:02:00,24.9,17.4,30.10,North,0,0.0,0.0,73,0.00,,,0.00,VWS V14.01,2013-03-02 05:02:00,
2013-03-02 00:05:00,25.0,17.3,30.11,NNE,19,0.0,2.3,72,0.00,,,0.00,VWS V14.01,2013-03-02 05:05:00,
2013-03-02 00:06:00,25.0,17.3,30.11,NNE,19,0.0,2.3,72,0.00,,,0.00,VWS V14.01,2013-03-02 05:06:00,
2013-03-02 00:07:00,25.0,17.2,30.10,NNE,26,1.0,2.3,72,0.00,,,0.00,VWS V14.01,2013-03-02 05:07:00,
2013-03-02 00:10:00,24.9,17.2,30.11,North,9,0.0,2.3,72,0.00,,,0.00,VWS V14.01,2013-03-02 05:10:00,
2013-03-02 00:11:00,24.8,17.3,30.10,North,7,0.0,2.3,73,0.00,,,0.00,VWS V14.01,2013-03-02 05:11:00,
2013-03-02 00:12:00,24.8,17.3,30.10,North,7,0.0,2.3,73,0.00,,,0.00,VWS V14.01,2013-03-02 05:12:00,
2013-03-02 00:15:00,24.8,17.4,30.10,NNE,17,0.0,2.3,73,0.00,,,0.00,VWS V14.01,2013-03-02 05:15:00,
2013-03-02 00:17:00,25.0,17.5,30.11,NNE,26,0.0,2.3,73,0.00,,,0.00,VWS V14.01,2013-03-02 05:17:00,
2013-03-02 00:19:00,24.9,17.3,30.10,NNE,24,0.0,2.3,72,0.00,,,0.00,VWS V14.01,2013-03-02 05:19:00,
2013-03-02 00:21:00,24.9,17.2,30.11,NNW,339,0.0,3.0,72,0.00,,,0.00,VWS V14.01,2013-03-02 05:21:00,
2013-03-02 00:22:00,24.9,17.3,30.11,NNE,18,0.0,3.0,72,0.00,,,0.00,VWS V14.01,2013-03-02 05:22:00,
2013-03-02 00:24:00,25.0,17.4,30.10,NNE,27,0.0,3.0,72,0.00,,,0.00,VWS V14.01,2013-03-02 05:24:00,
2013-03-02 00:27:00,25.1,17.3,30.10,NNE,25,0.0,3.0,72,0.00,,,0.00,VWS V14.01,2013-03-02 05:27:00,
2013-03-02 00:28:00,25.1,17.3,30.11,NNE,16,0.0,3.0,72,0.00,,,0.00,VWS V14.01,2013-03-02 05:28:00,
2013-03-02 00:29:00,25.0,17.2,30.11,NE,48,0.0,3.0,72,0.00,,,0.00,VWS V14.01,2013-03-02 05:29:00,
2013-03-02 00:32:00,25.1,17.2,30.11,NE,51,0.0,3.0,71,0.00,,,0.00,VWS V14.01,2013-03-02 05:32:00,
2013-03-02 00:33:00,25.1,16.9,30.11,East,82,1.3,3.0,70,0.00,,,0.00,VWS V14.01,2013-03-02 05:33:00,
2013-03-02 00:34:00,25.1,16.9,30.11,East,82,1.3,3.0,70,0.00,,,0.00,VWS V14.01,2013-03-02 05:34:00,
2013-03-02 00:36:00,25.2,16.6,30.10,NE,35,2.7,3.0,69,0.00,,,0.00,VWS V14.01,2013-03-02 05:36:00,
2013-03-02 00:38:00,25.1,16.5,30.11,ENE,57,2.8,3.5,69,0.00,,,0.00,VWS V14.01,2013-03-02 05:38:00,
2013-03-02 00:39:00,25.1,14.4,30.10,ENE,59,3.5,3.5,63,0.00,,,0.00,VWS V14.01,2013-03-02 05:39:00,
2013-03-02 00:41:00,25.1,16.4,30.11,ENE,57,1.1,3.5,69,0.00,,,0.00,VWS V14.01,2013-03-02 05:41:00,
2013-03-02 00:44:00,25.2,16.5,30.11,ENE,61,1.6,3.5,69,0.00,,,0.00,VWS V14.01,2013-03-02 05:44:00,
2013-03-02 00:45:00,25.2,16.5,30.11,NE,43,2.5,3.5,69,0.00,,,0.00,VWS V14.01,2013-03-02 05:45:00,
2013-03-02 00:47:00,25.1,16.8,30.11,ENE,69,0.0,3.5,70,0.00,,,0.00,VWS V14.01,2013-03-02 05:47:00,
2013-03-02 00:50:00,25.1,16.7,30.11,NE,50,1.0,3.5,70,0.00,,,0.00,VWS V14.01,2013-03-02 05:50:00,
2013-03-02 00:52:00,25.1,17.0,30.11,NE,47,0.0,3.5,71,0.00,,,0.00,VWS V14.01,2013-03-02 05:52:00,
2013-03-02 00:55:00,25.2,17.2,30.11,NNW,340,0.0,3.5,71,0.00,,,0.00,VWS V14.01,2013-03-02 05:55:00,
2013-03-02 00:57:00,25.2,17.1,30.10,NE,35,1.5,3.5,71,0.00,,,0.00,VWS V14.01,2013-03-02 05:57:00,
2013-03-02 00:58:00,25.1,17.0,30.10,NE,37,2.5,3.5,71,0.00,,,0.00,VWS V14.01,2013-03-02 05:58:00,
2013-03-02 01:00:00,25.1,17.0,30.10,NE,45,1.0,3.5,71,0.00,,,0.00,VWS V14.01,2013-03-02 06:00:00,
2013-03-02 01:03:00,25.1,17.3,30.11,NNE,24,3.5,4.4,72,0.00,,,0.00,VWS V14.01,2013-03-02 06:03:00,
2013-03-02 01:05:00,25.1,16.4,30.11,NNE,29,1.6,4.4,69,0.00,,,0.00,VWS V14.01,2013-03-02 06:05:00,
2013-03-02 01:08:00,25.1,17.3,30.11,NNE,33,2.8,4.4,72,0.00,,,0.00,VWS V14.01,2013-03-02 06:08:00,
2013-03-02 01:10:00,25.0,17.3,30.12,NE,46,2.0,4.4,72,0.00,,,0.00,VWS V14.01,2013-03-02 06:10:00,
2013-03-02 01:11:00,25.1,17.3,30.10,NNE,24,0.0,4.4,72,0.00,,,0.00,VWS V14.01,2013-03-02 06:11:00,
2013-03-02 01:14:00,25.0,17.3,30.11,NE,45,0.0,4.4,72,0.00,,,0.00,VWS V14.01,2013-03-02 06:14:00,
2013-03-02 01:16:00,25.0,17.5,30.11,NE,34,0.0,4.4,73,0.00,,,0.00,VWS V14.01,2013-03-02 06:16:00,
2013-03-02 01:17:00,25.0,17.7,30.11,NNE,23,0.0,4.4,73,0.00,,,0.00,VWS V14.01,2013-03-02 06:17:00,
2013-03-02 01:18:00,25.0,17.7,30.11,NE,42,2.5,4.4,73,0.00,,,0.00,VWS V14.01,2013-03-02 06:18:00,
2013-03-02 01:19:00,25.0,17.5,30.11,NE,37,0.0,4.4,73,0.00,,,0.00,VWS V14.01,2013-03-02 06:19:00,
2013-03-02 01:21:00,24.9,17.9,30.11,NNE,20,0.0,4.4,74,0.00,,,0.00,VWS V14.01,2013-03-02 06:21:00,
2013-03-02 01:23:00,24.9,17.2,30.11,North,0,0.0,4.4,72,0.00,,,0.00,VWS V14.01,2013-03-02 06:23:00,
2013-03-02 01:25:00,25.0,18.3,30.11,NE,37,0.0,4.4,75,0.00,,,0.00,VWS V14.01,2013-03-02 06:25:00,
2013-03-02 01:26:00,25.0,17.7,30.10,NNE,17,4.2,4.4,73,0.00,,,0.00,VWS V14.01,2013-03-02 06:26:00,
2013-03-02 01:28:00,25.0,17.1,30.11,North,2,0.0,4.4,72,0.00,,,0.00,VWS V14.01,2013-03-02 06:28:00,
2013-03-02 01:30:00,25.0,17.1,30.11,NNW,330,1.5,4.4,72,0.00,,,0.00,VWS V14.01,2013-03-02 06:30:00,
2013-03-02 01:31:00,24.9,17.2,30.10,North,1,0.0,4.4,72,0.00,,,0.00,VWS V14.01,2013-03-02 06:31:00,
2013-03-02 01:33:00,25.0,17.3,30.15,NNE,24,3.4,5.7,72,0.00,,,0.00,VWS V14.01,2013-03-02 06:33:00,
2013-03-02 01:35:00,25.0,17.3,30.10,NE,41,1.0,5.7,72,0.00,,,0.00,VWS V14.01,2013-03-02 06:35:00,
2013-03-02 01:36:00,25.0,17.3,30.10,NE,41,1.0,5.7,72,0.00,,,0.00,VWS V14.01,2013-03-02 06:36:00,
2013-03-02 01:39:00,25.1,17.0,30.10,NE,40,6.9,6.9,71,0.00,,,0.00,VWS V14.01,2013-03-02 06:39:00,
2013-03-02 01:40:00,25.1,16.9,30.11,NNE,20,4.7,6.9,71,0.00,,,0.00,VWS V14.01,2013-03-02 06:40:00,
2013-03-02 01:41:00,25.1,16.9,30.10,NNE,33,5.9,6.9,70,0.00,,,0.00,VWS V14.01,2013-03-02 06:41:00,
2013-03-02 01:42:00,25.0,16.9,30.10,NE,42,6.9,6.9,71,0.00,,,0.00,VWS V14.01,2013-03-02 06:42:00,
2013-03-02 01:44:00,25.0,16.7,30.10,NE,40,2.3,6.9,70,0.00,,,0.00,VWS V14.01,2013-03-02 06:44:00,
2013-03-02 01:46:00,25.0,16.8,30.10,NNE,29,3.9,6.9,70,0.00,,,0.00,VWS V14.01,2013-03-02 06:46:00,
2013-03-02 01:48:00,25.0,16.6,30.11,NNE,22,6.1,6.9,70,0.00,,,0.00,VWS V14.01,2013-03-02 06:48:00,
2013-03-02 01:49:00,25.0,17.0,30.11,NE,42,2.3,6.9,71,0.00,,,0.00,VWS V14.01,2013-03-02 06:49:00,
2013-03-02 01:50:00,25.0,16.8,30.11,NNE,21,2.0,6.9,71,0.00,,,0.00,VWS V14.01,2013-03-02 06:50:00,
2013-03-02 01:52:00,24.9,17.0,30.11,NNE,24,5.1,6.9,71,0.00,,,0.00,VWS V14.01,2013-03-02 06:52:00,
2013-03-02 01:54:00,24.9,16.8,30.10,NNE,30,5.4,6.9,71,0.00,,,0.00,VWS V14.01,2013-03-02 06:54:00,
2013-03-02 01:56:00,24.9,16.9,30.11,NNE,20,3.7,6.9,71,0.00,,,0.00,VWS V14.01,2013-03-02 06:56:00,
2013-03-02 01:58:00,24.8,17.1,30.12,NE,37,5.4,6.9,72,0.00,,,0.00,VWS V14.01,2013-03-02 06:58:00,
2013-03-02 02:00:00,24.8,16.8,30.10,NNE,16,2.8,7.1,71,0.00,,,0.00,VWS V14.01,2013-03-02 07:00:00,
2013-03-02 02:01:00,24.9,16.7,30.11,NE,36,2.3,7.1,71,0.00,,,0.00,VWS V14.01,2013-03-02 07:01:00,
2013-03-02 02:03:00,24.9,16.8,30.12,NE,35,7.8,7.8,71,0.00,,,0.00,VWS V14.01,2013-03-02 07:03:00,
2013-03-02 02:05:00,24.9,16.5,30.11,NE,36,8.5,8.5,70,0.00,,,0.00,VWS V14.01,2013-03-02 07:05:00,
2013-03-02 02:06:00,24.8,16.5,30.11,NE,37,2.5,8.5,70,0.00,,,0.00,VWS V14.01,2013-03-02 07:06:00,
2013-03-02 02:08:00,24.8,17.0,30.11,NNE,15,1.5,8.5,72,0.00,,,0.00,VWS V14.01,2013-03-02 07:08:00,
2013-03-02 02:11:00,24.8,17.1,30.10,NE,47,2.2,8.5,72,0.00,,,0.00,VWS V14.01,2013-03-02 07:11:00,
2013-03-02 02:12:00,24.8,17.1,30.11,NNE,15,6.1,8.5,72,0.00,,,0.00,VWS V14.01,2013-03-02 07:12:00,
2013-03-02 02:13:00,24.8,17.0,30.11,NNW,336,1.5,8.5,72,0.00,,,0.00,VWS V14.01,2013-03-02 07:13:00,
2013-03-02 02:14:00,24.8,16.9,30.11,NNE,30,5.4,8.5,71,0.00,,,0.00,VWS V14.01,2013-03-02 07:14:00,
2013-03-02 02:17:00,24.8,16.7,30.11,NNE,21,7.1,8.5,71,0.00,,,0.00,VWS V14.01,2013-03-02 07:17:00,
2013-03-02 02:19:00,24.8,16.7,30.11,NNE,24,4.0,8.5,71,0.00,,,0.00,VWS V14.01,2013-03-02 07:19:00,
2013-03-02 02:20:00,24.8,16.8,30.11,NE,37,5.6,8.5,71,0.00,,,0.00,VWS V14.01,2013-03-02 07:20:00,
2013-03-02 02:22:00,24.8,16.8,30.16,NE,45,6.8,8.5,71,0.00,,,0.00,VWS V14.01,2013-03-02 07:22:00,
2013-03-02 02:26:00,24.7,16.9,30.11,North,3,2.0,8.5,72,0.00,,,0.00,VWS V14.01,2013-03-02 07:26:00,
2013-03-02 02:28:00,24.8,17.1,30.10,NNE,22,2.0,8.5,72,0.00,,,0.00,VWS V14.01,2013-03-02 07:28:00,
2013-03-02 02:31:00,24.8,17.1,30.10,NE,54,3.2,8.5,72,0.00,,,0.00,VWS V14.01,2013-03-02 07:31:00,
2013-03-02 02:33:00,24.8,17.2,30.11,NE,39,3.9,8.5,73,0.00,,,0.00,VWS V14.01,2013-03-02 07:33:00,
2013-03-02 02:34:00,24.8,17.2,30.10,NE,36,4.2,8.5,72,0.00,,,0.00,VWS V14.01,2013-03-02 07:34:00,
2013-03-02 02:35:00,24.8,17.1,30.10,NE,50,3.7,8.5,72,0.00,,,0.00,VWS V14.01,2013-03-02 07:35:00,
2013-03-02 02:38:00,24.7,17.3,30.10,NE,51,3.0,8.5,73,0.00,,,0.00,VWS V14.01,2013-03-02 07:38:00,
2013-03-02 02:40:00,24.7,17.4,30.10,North,9,1.3,8.5,73,0.00,,,0.00,VWS V14.01,2013-03-02 07:40:00,
2013-03-02 02:41:00,24.7,17.5,30.10,NNE,17,1.6,8.5,74,0.00,,,0.00,VWS V14.01,2013-03-02 07:41:00,
2013-03-02 02:46:00,24.6,17.4,30.09,NNE,31,1.8,8.5,74,0.00,,,0.00,VWS V14.01,2013-03-02 07:46:00,
2013-03-02 02:48:00,24.6,17.2,30.10,NNE,29,3.7,8.5,73,0.00,,,0.00,VWS V14.01,2013-03-02 07:48:00,
2013-03-02 02:51:00,24.6,17.3,30.09,NNE,15,0.0,8.5,73,0.00,,,0.00,VWS V14.01,2013-03-02 07:51:00,
2013-03-02 02:52:00,24.7,17.0,30.10,North,4,3.5,8.5,72,0.00,,,0.00,VWS V14.01,2013-03-02 07:52:00,
2013-03-02 02:53:00,24.6,17.0,30.10,North,351,1.1,8.5,72,0.00,,,0.00,VWS V14.01,2013-03-02 07:53:00,
2013-03-02 02:55:00,24.6,16.8,30.09,NE,40,2.0,8.5,72,0.00,,,0.00,VWS V14.01,2013-03-02 07:55:00,
2013-03-02 02:58:00,24.6,17.2,30.10,NE,37,1.6,8.5,73,0.00,,,0.00,VWS V14.01,2013-03-02 07:58:00,
2013-03-02 02:59:00,24.6,17.0,30.10,NNE,12,1.6,8.5,72,0.00,,,0.00,VWS V14.01,2013-03-02 07:59:00,
2013-03-02 03:03:00,24.8,17.2,30.10,NNE,30,4.9,4.9,72,0.00,,,0.00,VWS V14.01,2013-03-02 08:03:00,
2013-03-02 03:04:00,24.8,17.3,30.10,NE,48,2.0,2.7,73,0.00,,,0.00,VWS V14.01,2013-03-02 08:04:00,
2013-03-02 03:06:00,24.7,17.4,30.09,NE,36,0.0,2.7,73,0.00,,,0.00,VWS V14.01,2013-03-02 08:06:00,
2013-03-02 03:08:00,24.7,17.6,30.09,NNE,17,0.0,2.7,74,0.00,,,0.00,VWS V14.01,2013-03-02 08:08:00,
2013-03-02 03:09:00,24.7,17.6,30.09,NNE,15,1.1,2.7,74,0.00,,,0.00,VWS V14.01,2013-03-02 08:09:00,
2013-03-02 03:12:00,24.5,17.9,30.10,NNE,19,0.0,2.7,75,0.00,,,0.00,VWS V14.01,2013-03-02 08:12:00,
2013-03-02 03:14:00,24.5,17.7,30.09,North,10,0.0,2.7,75,0.00,,,0.00,VWS V14.01,2013-03-02 08:14:00,
2013-03-02 03:15:00,24.6,17.7,30.09,North,11,1.1,2.7,75,0.00,,,0.00,VWS V14.01,2013-03-02 08:15:00,
2013-03-02 03:18:00,24.6,17.6,30.14,NNW,332,0.0,2.7,75,0.00,,,0.00,VWS V14.01,2013-03-02 08:18:00,
2013-03-02 03:19:00,24.6,17.6,30.10,NNW,341,0.0,2.7,74,0.00,,,0.00,VWS V14.01,2013-03-02 08:19:00,
2013-03-02 03:20:00,24.6,17.6,30.09,NNW,345,0.0,2.7,74,0.00,,,0.00,VWS V14.01,2013-03-02 08:20:00,
2013-03-02 03:21:00,24.5,17.4,30.09,NE,38,0.0,2.7,74,0.00,,,0.00,VWS V14.01,2013-03-02 08:21:00,
2013-03-02 03:24:00,24.7,17.7,30.09,NNE,22,2.7,2.8,74,0.00,,,0.00,VWS V14.01,2013-03-02 08:24:00,
2013-03-02 03:25:00,24.5,17.6,30.09,NNW,330,0.0,2.8,74,0.00,,,0.00,VWS V14.01,2013-03-02 08:25:00,
2013-03-02 03:27:00,24.5,17.2,30.09,NNE,21,0.0,4.5,73,0.00,,,0.00,VWS V14.01,2013-03-02 08:27:00,
2013-03-02 03:28:00,24.4,17.1,30.09,NNE,20,2.5,4.5,74,0.00,,,0.00,VWS V14.01,2013-03-02 08:28:00,
2013-03-02 03:30:00,24.2,16.3,30.09,NNE,28,9.7,9.7,71,0.00,,,0.00,VWS V14.01,2013-03-02 08:30:00,
2013-03-02 03:32:00,24.1,15.6,30.09,NNE,19,5.7,9.7,70,0.00,,,0.00,VWS V14.01,2013-03-02 08:32:00,
2013-03-02 03:34:00,24.0,16.1,30.09,NNW,329,1.0,9.7,71,0.00,,,0.00,VWS V14.01,2013-03-02 08:34:00,
2013-03-02 03:35:00,24.0,15.8,30.09,NNE,28,3.5,9.7,71,0.00,,,0.00,VWS V14.01,2013-03-02 08:35:00,
2013-03-02 03:37:00,23.9,15.3,30.10,NNW,346,1.0,9.7,69,0.00,,,0.00,VWS V14.01,2013-03-02 08:37:00,
2013-03-02 03:38:00,23.9,15.2,30.09,North,0,0.0,9.7,69,0.00,,,0.00,VWS V14.01,2013-03-02 08:38:00,
2013-03-02 03:40:00,23.9,15.1,30.09,NNE,24,3.0,9.7,68,0.00,,,0.00,VWS V14.01,2013-03-02 08:40:00,
2013-03-02 03:41:00,23.9,15.1,30.09,NE,53,3.7,9.7,69,0.00,,,0.00,VWS V14.01,2013-03-02 08:41:00,
2013-03-02 03:42:00,23.8,15.3,30.09,NE,34,1.6,9.7,69,0.00,,,0.00,VWS V14.01,2013-03-02 08:42:00,
2013-03-02 03:43:00,23.9,15.4,30.14,NE,38,3.5,9.7,70,0.00,,,0.00,VWS V14.01,2013-03-02 08:43:00,
2013-03-02 03:45:00,23.8,15.3,30.09,ENE,63,1.0,9.7,70,0.00,,,0.00,VWS V14.01,2013-03-02 08:45:00,
2013-03-02 03:47:00,23.8,15.3,30.09,NNE,32,1.3,9.7,70,0.00,,,0.00,VWS V14.01,2013-03-02 08:47:00,
2013-03-02 03:48:00,23.8,15.5,30.09,NNE,12,3.0,9.7,70,0.00,,,0.00,VWS V14.01,2013-03-02 08:48:00,
2013-03-02 03:49:00,23.8,15.4,30.10,NNE,31,2.7,9.7,70,0.00,,,0.00,VWS V14.01,2013-03-02 08:49:00,
2013-03-02 03:51:00,23.7,15.3,30.09,NNE,18,1.8,9.7,70,0.00,,,0.00,VWS V14.01,2013-03-02 08:51:00,
2013-03-02 03:52:00,23.7,15.1,30.09,NNE,30,0.0,9.7,69,0.00,,,0.00,VWS V14.01,2013-03-02 08:52:00,
2013-03-02 03:53:00,23.7,15.4,30.09,NE,39,0.0,9.7,70,0.00,,,0.00,VWS V14.01,2013-03-02 08:53:00,
2013-03-02 03:55:00,23.7,15.3,30.09,NNE,25,3.7,9.7,70,0.00,,,0.00,VWS V14.01,2013-03-02 08:55:00,
2013-03-02 03:56:00,23.7,15.2,30.09,North,4,1.0,9.7,70,0.00,,,0.00,VWS V14.01,2013-03-02 08:56:00,
2013-03-02 03:58:00,23.6,15.0,30.09,North,11,2.8,2.8,69,0.00,,,0.00,VWS V14.01,2013-03-02 08:58:00,
2013-03-02 03:59:00,23.7,15.0,30.09,NNE,26,5.2,5.2,69,0.00,,,0.00,VWS V14.01,2013-03-02 08:59:00,
2013-03-02 04:00:00,23.7,15.1,30.14,ENE,69,0.0,0.0,69,0.00,,,0.00,VWS V14.01,2013-03-02 09:00:00,
2013-03-02 04:02:00,23.7,15.2,30.09,NNW,343,2.3,2.5,70,0.00,,,0.00,VWS V14.01,2013-03-02 09:02:00,
2013-03-02 04:03:00,23.7,15.4,30.09,NNE,25,2.8,3.9,70,0.00,,,0.00,VWS V14.01,2013-03-02 09:03:00,
2013-03-02 04:05:00,23.6,15.2,30.08,NW,322,3.2,3.2,70,0.00,,,0.00,VWS V14.01,2013-03-02 09:05:00,
2013-03-02 04:06:00,23.6,15.3,30.08,NNE,26,1.6,3.2,70,0.00,,,0.00,VWS V14.01,2013-03-02 09:06:00,
2013-03-02 04:09:00,23.6,15.7,30.09,NE,39,2.8,4.7,71,0.00,,,0.00,VWS V14.01,2013-03-02 09:09:00,
2013-03-02 04:11:00,23.7,15.9,30.08,NNW,339,0.0,4.7,72,0.00,,,0.00,VWS V14.01,2013-03-02 09:11:00,
2013-03-02 04:14:00,23.6,15.8,30.09,North,6,1.5,4.7,71,0.00,,,0.00,VWS V14.01,2013-03-02 09:14:00,
2013-03-02 04:15:00,23.6,15.5,30.09,North,3,3.9,4.9,71,0.00,,,0.00,VWS V14.01,2013-03-02 09:15:00,
2013-03-02 04:17:00,23.7,15.4,30.09,NNE,29,5.4,5.4,70,0.00,,,0.00,VWS V14.01,2013-03-02 09:17:00,
2013-03-02 04:19:00,23.6,15.8,30.08,NNE,15,3.4,5.6,72,0.00,,,0.00,VWS V14.01,2013-03-02 09:19:00,
2013-03-02 04:21:00,23.5,15.9,30.09,NNE,32,1.5,5.6,72,0.00,,,0.08,VWS V14.01,2013-03-02 09:21:00,
2013-03-02 04:24:00,23.6,16.0,30.09,NNW,339,0.0,5.6,72,0.00,,,0.00,VWS V14.01,2013-03-02 09:24:00,
2013-03-02 04:25:00,23.5,16.0,30.09,North,351,0.0,5.6,73,0.00,,,0.00,VWS V14.01,2013-03-02 09:25:00,
2013-03-02 04:26:00,23.4,16.0,30.09,NNE,18,0.0,5.6,73,0.00,,,0.00,VWS V14.01,2013-03-02 09:26:00,
2013-03-02 04:28:00,23.6,16.6,30.09,NNE,25,2.5,5.6,74,0.00,,,0.00,VWS V14.01,2013-03-02 09:28:00,
2013-03-02 04:29:00,23.5,16.8,30.09,NNE,22,7.1,7.1,75,0.00,,,0.00,VWS V14.01,2013-03-02 09:29:00,
2013-03-02 04:30:00,23.5,16.9,30.09,North,3,3.2,7.1,75,0.00,,,0.00,VWS V14.01,2013-03-02 09:30:00,
2013-03-02 04:31:00,23.5,16.7,30.09,NNE,15,3.2,7.1,75,0.00,,,0.00,VWS V14.01,2013-03-02 09:31:00,
2013-03-02 04:34:00,23.6,16.9,30.09,North,9,0.0,7.1,75,0.00,,,0.00,VWS V14.01,2013-03-02 09:34:00,
2013-03-02 04:35:00,23.5,16.8,30.08,NNE,27,2.2,7.1,75,0.00,,,0.00,VWS V14.01,2013-03-02 09:35:00,
2013-03-02 04:36:00,23.6,16.9,30.09,NNE,20,1.5,7.1,75,0.00,,,0.00,VWS V14.01,2013-03-02 09:36:00,
2013-03-02 04:38:00,23.8,16.6,30.09,NE,38,1.5,7.1,74,0.00,,,0.00,VWS V14.01,2013-03-02 09:38:00,
2013-03-02 04:39:00,23.7,16.4,30.09,NNE,30,4.7,7.1,73,0.00,,,0.00,VWS V14.01,2013-03-02 09:39:00,
2013-03-02 04:40:00,23.7,16.3,30.11,NNE,27,2.0,7.1,73,0.00,,,0.00,VWS V14.01,2013-03-02 09:40:00,
2013-03-02 04:43:00,23.6,16.5,30.09,NNE,33,0.0,7.1,74,0.00,,,0.00,VWS V14.01,2013-03-02 09:43:00,
2013-03-02 04:44:00,23.5,16.5,30.09,NE,40,1.1,7.1,74,0.00,,,0.00,VWS V14.01,2013-03-02 09:44:00,
2013-03-02 04:45:00,23.5,16.5,30.10,NNE,19,1.3,7.1,74,0.00,,,0.00,VWS V14.01,2013-03-02 09:45:00,
2013-03-02 04:47:00,23.6,16.8,30.10,North,2,0.0,7.1,75,0.00,,,0.00,VWS V14.01,2013-03-02 09:47:00,
2013-03-02 04:49:00,23.4,17.1,30.10,NNE,19,0.0,7.1,76,0.00,,,0.00,VWS V14.01,2013-03-02 09:49:00,
2013-03-02 04:52:00,23.4,17.1,30.09,NNE,26,2.3,7.1,76,0.00,,,0.00,VWS V14.01,2013-03-02 09:52:00,
2013-03-02 04:54:00,23.5,17.3,30.09,North,7,1.1,7.1,77,0.00,,,0.00,VWS V14.01,2013-03-02 09:54:00,
2013-03-02 04:57:00,23.4,17.5,30.09,North,350,0.0,7.1,78,0.00,,,0.00,VWS V14.01,2013-03-02 09:57:00,
2013-03-02 05:00:00,23.4,17.3,30.09,North,1,1.5,7.1,77,0.00,,,0.00,VWS V14.01,2013-03-02 10:00:00,
2013-03-02 05:02:00,23.5,17.5,30.09,NNW,333,0.0,0.0,78,0.00,,,0.00,VWS V14.01,2013-03-02 10:02:00,
2013-03-02 05:04:00,23.4,17.6,30.10,NNW,344,0.0,0.0,78,0.00,,,0.00,VWS V14.01,2013-03-02 10:04:00,
2013-03-02 05:05:00,23.5,17.7,30.09,North,351,0.0,0.0,78,0.00,,,0.00,VWS V14.01,2013-03-02 10:05:00,
2013-03-02 05:07:00,23.4,17.7,30.10,NNE,15,0.0,1.0,78,0.00,,,0.00,VWS V14.01,2013-03-02 10:07:00,
2013-03-02 05:09:00,23.5,17.9,30.09,NW,323,0.0,0.0,79,0.00,,,0.00,VWS V14.01,2013-03-02 10:09:00,
2013-03-02 05:10:00,23.4,18.0,30.09,NNW,342,0.0,0.0,79,0.00,,,0.00,VWS V14.01,2013-03-02 10:10:00,
2013-03-02 05:11:00,23.5,17.7,30.09,NNW,340,0.0,1.0,78,0.00,,,0.00,VWS V14.01,2013-03-02 10:11:00,
2013-03-02 05:13:00,23.5,17.5,30.09,NNE,33,0.0,3.4,77,0.00,,,0.00,VWS V14.01,2013-03-02 10:13:00,
2013-03-02 05:15:00,23.5,17.5,30.10,NNE,21,1.0,1.0,77,0.00,,,0.00,VWS V14.01,2013-03-02 10:15:00,
2013-03-02 05:16:00,23.6,17.6,30.10,NNW,338,0.0,1.0,78,0.00,,,0.00,VWS V14.01,2013-03-02 10:16:00,
2013-03-02 05:20:00,23.7,17.0,30.09,NE,38,1.6,2.3,75,0.00,,,0.00,VWS V14.01,2013-03-02 10:20:00,
2013-03-02 05:22:00,23.7,17.1,30.09,NNE,22,1.0,3.2,75,0.00,,,0.00,VWS V14.01,2013-03-02 10:22:00,
2013-03-02 05:23:00,23.7,17.0,30.09,NNW,345,0.0,0.0,75,0.00,,,0.00,VWS V14.01,2013-03-02 10:23:00,
2013-03-02 05:25:00,23.6,16.8,30.09,NNE,12,1.8,1.8,75,0.00,,,0.00,VWS V14.01,2013-03-02 10:25:00,
2013-03-02 05:28:00,23.7,16.9,30.08,NNE,26,0.0,0.0,75,0.00,,,0.00,VWS V14.01,2013-03-02 10:28:00,
2013-03-02 05:29:00,23.7,17.0,30.09,NNE,19,0.0,0.0,75,0.00,,,0.00,VWS V14.01,2013-03-02 10:29:00,
2013-03-02 05:32:00,23.7,17.3,30.09,NNW,327,0.0,1.1,76,0.00,,,0.00,VWS V14.01,2013-03-02 10:32:00,
2013-03-02 05:33:00,23.7,17.3,30.09,North,3,2.0,2.0,76,0.00,,,0.00,VWS V14.01,2013-03-02 10:33:00,
2013-03-02 05:34:00,23.7,16.9,30.09,NNW,344,0.0,2.0,75,0.00,,,0.00,VWS V14.01,2013-03-02 10:34:00,
2013-03-02 05:37:00,23.7,16.6,30.09,NNW,339,0.0,1.1,74,0.00,,,0.00,VWS V14.01,2013-03-02 10:37:00,
2013-03-02 05:39:00,23.8,16.6,30.09,North,10,0.0,2.7,74,0.00,,,0.00,VWS V14.01,2013-03-02 10:39:00,
2013-03-02 05:41:00,23.8,16.8,30.09,North,4,4.5,4.5,74,0.00,,,0.00,VWS V14.01,2013-03-02 10:41:00,
2013-03-02 05:43:00,23.8,16.4,30.09,NE,37,5.2,5.2,73,0.00,,,0.00,VWS V14.01,2013-03-02 10:43:00,
2013-03-02 05:44:00,23.8,13.1,30.09,NNE,20,4.4,5.2,63,0.00,,,0.00,VWS V14.01,2013-03-02 10:44:00,
2013-03-02 05:46:00,23.8,16.5,30.09,North,360,0.0,1.5,73,0.00,,,0.00,VWS V14.01,2013-03-02 10:46:00,
2013-03-02 05:48:00,23.8,16.5,30.09,North,10,3.0,3.0,73,0.00,,,0.00,VWS V14.01,2013-03-02 10:48:00,
2013-03-02 05:51:00,24.0,16.1,30.09,NE,46,3.7,3.7,72,0.00,,,0.00,VWS V14.01,2013-03-02 10:51:00,
2013-03-02 05:52:00,23.9,16.0,30.09,NNE,32,5.7,5.7,71,0.00,,,0.00,VWS V14.01,2013-03-02 10:52:00,
2013-03-02 05:53:00,23.9,15.9,30.09,NNE,12,3.4,3.4,71,0.00,,,0.00,VWS V14.01,2013-03-02 10:53:00,
2013-03-02 05:57:00,23.8,16.0,30.08,NNE,17,3.4,7.1,72,0.00,,,0.00,VWS V14.01,2013-03-02 10:57:00,
2013-03-02 05:58:00,23.9,15.9,30.08,NNE,13,1.8,1.8,71,0.00,,,0.00,VWS V14.01,2013-03-02 10:58:00,
2013-03-02 05:59:00,23.9,15.9,30.09,NNW,348,0.0,0.0,71,0.00,,,0.00,VWS V14.01,2013-03-02 10:59:00,
2013-03-02 06:02:00,23.9,15.9,30.09,North,10,1.5,1.5,71,0.00,,,0.00,VWS V14.01,2013-03-02 11:02:00,
2013-03-02 06:03:00,23.9,15.8,30.09,North,10,0.0,1.5,71,0.00,,,0.00,VWS V14.01,2013-03-02 11:03:00,
2013-03-02 06:04:00,23.9,15.7,30.09,NNW,342,0.0,0.0,71,0.00,,,0.00,VWS V14.01,2013-03-02 11:04:00,
2013-03-02 06:06:00,23.9,15.6,30.09,NNW,347,0.0,1.5,70,0.00,,,0.00,VWS V14.01,2013-03-02 11:06:00,
2013-03-02 06:08:00,23.9,15.7,30.09,North,11,0.0,0.0,71,0.00,,,0.00,VWS V14.01,2013-03-02 11:08:00,
2013-03-02 06:09:00,23.9,15.8,30.09,North,349,0.0,0.0,71,0.00,,,0.00,VWS V14.01,2013-03-02 11:09:00,
2013-03-02 06:10:00,23.8,15.9,30.09,NNW,341,0.0,0.0,71,0.00,,,0.00,VWS V14.01,2013-03-02 11:10:00,
2013-03-02 06:12:00,23.9,16.1,30.09,North,349,1.5,1.5,72,0.00,,,0.00,VWS V14.01,2013-03-02 11:12:00,
2013-03-02 06:13:00,23.9,14.3,30.09,NNE,16,0.0,1.5,66,0.00,,,0.00,VWS V14.01,2013-03-02 11:13:00,
2013-03-02 06:14:00,23.9,16.1,30.09,North,351,0.0,0.0,72,0.00,,,0.00,VWS V14.01,2013-03-02 11:14:00,
2013-03-02 06:15:00,23.9,16.0,30.09,NE,42,0.0,0.0,72,0.00,,,0.00,VWS V14.01,2013-03-02 11:15:00,
2013-03-02 06:18:00,23.9,16.0,30.09,NNW,343,1.1,2.7,71,0.00,,,0.00,VWS V14.01,2013-03-02 11:18:00,
2013-03-02 06:19:00,23.8,15.9,30.09,NNW,341,0.0,1.1,71,0.00,,,0.00,VWS V14.01,2013-03-02 11:19:00,
2013-03-02 06:20:00,23.9,15.8,30.09,NW,319,0.0,1.6,71,0.00,,,0.00,VWS V14.01,2013-03-02 11:20:00,
2013-03-02 06:21:00,23.9,15.8,30.09,NW,319,0.0,1.6,71,0.00,,,0.00,VWS V14.01,2013-03-02 11:21:00,
2013-03-02 06:24:00,23.9,16.1,30.09,NE,38,0.0,2.2,72,0.00,,,0.00,VWS V14.01,2013-03-02 11:24:00,
2013-03-02 06:25:00,23.8,16.1,30.09,NW,314,0.0,0.0,72,0.00,,,0.00,VWS V14.01,2013-03-02 11:25:00,
2013-03-02 06:26:00,23.8,16.1,30.09,NNW,341,3.0,3.0,72,0.00,,,0.00,VWS V14.01,2013-03-02 11:26:00,
2013-03-02 06:29:00,23.8,15.9,30.09,NNE,14,4.7,4.7,72,0.00,,,0.00,VWS V14.01,2013-03-02 11:29:00,
2013-03-02 06:31:00,23.7,16.0,30.09,North,4,0.0,0.0,72,0.00,,,0.00,VWS V14.01,2013-03-02 11:31:00,
2013-03-02 06:32:00,23.8,16.1,30.09,NNW,337,0.0,1.0,72,0.00,,,0.00,VWS V14.01,2013-03-02 11:32:00,
2013-03-02 06:36:00,23.8,16.3,30.09,NW,319,2.8,2.8,73,0.00,,,0.00,VWS V14.01,2013-03-02 11:36:00,
2013-03-02 06:38:00,23.7,16.3,30.09,NW,316,5.1,5.1,73,0.00,,,0.00,VWS V14.01,2013-03-02 11:38:00,
2013-03-02 06:39:00,23.7,16.3,30.09,North,8,4.5,5.1,73,0.00,,,0.00,VWS V14.01,2013-03-02 11:39:00,
2013-03-02 06:41:00,23.7,14.2,30.09,NW,321,2.2,3.9,67,0.00,,,0.00,VWS V14.01,2013-03-02 11:41:00,
2013-03-02 06:42:00,23.7,16.3,30.10,North,360,0.0,2.2,73,0.00,,,0.00,VWS V14.01,2013-03-02 11:42:00,
2013-03-02 06:44:00,23.7,14.9,30.09,NNW,344,3.7,3.7,69,0.00,,,0.00,VWS V14.01,2013-03-02 11:44:00,
2013-03-02 06:46:00,23.7,15.5,30.09,North,352,2.0,2.0,70,0.00,,,0.00,VWS V14.01,2013-03-02 11:46:00,
2013-03-02 06:49:00,23.7,16.4,30.10,NNW,344,0.0,1.5,73,0.00,,,0.00,VWS V14.01,2013-03-02 11:49:00,
2013-03-02 06:50:00,23.6,16.3,30.09,NNW,339,2.0,2.0,73,0.00,,,0.00,VWS V14.01,2013-03-02 11:50:00,
2013-03-02 06:51:00,23.6,16.4,30.09,NNW,334,2.8,2.8,73,0.00,,,0.00,VWS V14.01,2013-03-02 11:51:00,
2013-03-02 06:53:00,23.7,16.7,30.10,NW,312,4.0,4.0,74,0.00,,,0.00,VWS V14.01,2013-03-02 11:53:00,
2013-03-02 06:54:00,23.6,16.7,30.09,NE,39,2.5,2.5,74,0.00,,,0.00,VWS V14.01,2013-03-02 11:54:00,
2013-03-02 06:55:00,23.6,16.7,30.09,NNW,338,0.0,2.5,74,0.00,,,0.00,VWS V14.01,2013-03-02 11:55:00,
2013-03-02 06:57:00,23.6,16.6,30.10,North,7,3.9,3.9,74,0.00,,,0.00,VWS V14.01,2013-03-02 11:57:00,
2013-03-02 06:58:00,23.6,16.6,30.10,NW,305,0.0,0.0,74,0.00,,,0.00,VWS V14.01,2013-03-02 11:58:00,
2013-03-02 06:59:00,23.6,16.5,30.10,NW,314,3.2,3.2,74,0.00,,,0.00,VWS V14.01,2013-03-02 11:59:00,
2013-03-02 07:00:00,23.6,16.5,30.10,NW,314,3.2,3.2,74,0.00,,,0.00,VWS V14.01,2013-03-02 12:00:00,
2013-03-02 07:04:00,23.6,16.6,30.10,NNW,343,6.4,6.4,74,0.00,,,0.00,VWS V14.01,2013-03-02 12:04:00,
2013-03-02 07:05:00,23.6,16.6,30.10,NW,325,2.0,6.4,74,0.00,,,0.00,VWS V14.01,2013-03-02 12:05:00,
2013-03-02 07:07:00,23.6,16.5,30.10,NNW,333,0.0,3.2,74,0.00,,,0.00,VWS V14.01,2013-03-02 12:07:00,
2013-03-02 07:09:00,23.6,16.4,30.10,NW,322,4.0,6.4,73,0.00,,,0.00,VWS V14.01,2013-03-02 12:09:00,
2013-03-02 07:10:00,23.6,16.4,30.11,NNW,339,3.4,3.4,73,0.00,,,0.00,VWS V14.01,2013-03-02 12:10:00,
2013-03-02 07:13:00,23.7,16.0,30.10,North,0,3.0,4.9,72,0.00,,,0.00,VWS V14.01,2013-03-02 12:13:00,
2013-03-02 07:15:00,23.7,15.5,30.10,North,349,3.4,5.2,71,0.00,,,0.00,VWS V14.01,2013-03-02 12:15:00,
2013-03-02 07:16:00,23.6,16.5,30.10,NW,323,3.9,3.9,74,0.00,,,0.00,VWS V14.01,2013-03-02 12:16:00,
2013-03-02 07:17:00,23.7,16.4,30.10,NNE,32,4.2,6.8,73,0.00,,,0.00,VWS V14.01,2013-03-02 12:17:00,
2013-03-02 07:18:00,23.6,16.3,30.10,NNW,348,1.1,4.2,73,0.00,,,0.00,VWS V14.01,2013-03-02 12:18:00,
2013-03-02 07:20:00,23.7,16.0,30.10,NNW,341,3.4,3.4,72,0.00,,,0.00,VWS V14.01,2013-03-02 12:20:00,
2013-03-02 07:21:00,23.7,16.0,30.10,North,6,0.0,0.0,72,0.00,,,0.00,VWS V14.01,2013-03-02 12:21:00,
2013-03-02 07:23:00,23.6,15.9,30.10,NNW,339,3.2,3.4,72,0.00,,,0.00,VWS V14.01,2013-03-02 12:23:00,
2013-03-02 07:24:00,23.7,15.8,30.10,NNW,344,3.7,3.7,71,0.00,,,0.00,VWS V14.01,2013-03-02 12:24:00,
2013-03-02 07:26:00,23.7,15.7,30.10,NNW,333,1.6,1.6,71,0.00,,,0.00,VWS V14.01,2013-03-02 12:26:00,
2013-03-02 07:28:00,23.7,15.6,30.11,NNW,336,4.5,5.6,71,0.00,,,0.00,VWS V14.01,2013-03-02 12:28:00,
2013-03-02 07:29:00,23.7,15.6,30.11,NNW,332,3.5,4.5,71,0.00,,,0.00,VWS V14.01,2013-03-02 12:29:00,
2013-03-02 07:31:00,23.6,15.7,30.11,North,6,5.2,6.4,71,0.00,,,0.00,VWS V14.01,2013-03-02 12:31:00,
2013-03-02 07:32:00,23.7,15.8,30.11,North,349,4.4,5.2,71,0.00,,,0.00,VWS V14.01,2013-03-02 12:32:00,
2013-03-02 07:33:00,23.7,15.0,30.10,North,3,3.0,4.4,69,0.00,,,0.00,VWS V14.01,2013-03-02 12:33:00,
2013-03-02 07:34:00,23.7,15.9,30.11,NNW,332,1.3,3.0,72,0.00,,,0.00,VWS V14.01,2013-03-02 12:34:00,
2013-03-02 07:36:00,23.6,15.9,30.11,NNE,12,2.0,2.8,72,0.00,,,0.00,VWS V14.01,2013-03-02 12:36:00,
2013-03-02 07:38:00,23.6,15.8,30.10,NNW,330,2.3,2.3,72,0.00,,,0.00,VWS V14.01,2013-03-02 12:38:00,
2013-03-02 07:39:00,23.6,15.9,30.10,NW,311,1.0,1.0,72,0.00,,,0.00,VWS V14.01,2013-03-02 12:39:00,
2013-03-02 07:41:00,23.6,16.1,30.10,North,360,1.3,3.7,72,0.00,,,0.00,VWS V14.01,2013-03-02 12:41:00,
2013-03-02 07:44:00,23.7,16.5,30.10,NNW,336,0.0,0.0,74,0.00,,,0.00,VWS V14.01,2013-03-02 12:44:00,
2013-03-02 07:45:00,23.6,16.7,30.11,NNE,24,1.6,1.6,74,0.00,,,0.00,VWS V14.01,2013-03-02 12:45:00,
2013-03-02 07:47:00,23.5,16.5,30.11,NNW,346,1.8,2.2,74,0.00,,,0.00,VWS V14.01,2013-03-02 12:47:00,
2013-03-02 07:49:00,23.7,16.6,30.11,NNW,348,0.0,2.2,74,0.00,,,0.00,VWS V14.01,2013-03-02 12:49:00,
2013-03-02 07:50:00,23.6,16.5,30.11,NNE,17,2.0,2.0,74,0.00,,,0.00,VWS V14.01,2013-03-02 12:50:00,
2013-03-02 07:52:00,23.6,16.5,30.11,NNE,17,4.0,4.0,74,0.00,,,0.00,VWS V14.01,2013-03-02 12:52:00,
2013-03-02 07:55:00,23.5,16.2,30.11,North,350,3.5,3.5,73,0.00,,,0.00,VWS V14.01,2013-03-02 12:55:00,
2013-03-02 07:57:00,23.7,16.8,30.11,NNE,13,0.0,0.0,75,0.00,,,0.00,VWS V14.01,2013-03-02 12:57:00,
2013-03-02 08:00:00,23.6,16.5,30.11,NNE,24,1.0,3.2,74,0.00,,,0.00,VWS V14.01,2013-03-02 13:00:00,
2013-03-02 08:01:00,23.3,16.5,30.11,NNE,25,4.9,5.2,75,0.00,,,0.00,VWS V14.01,2013-03-02 13:01:00,
2013-03-02 08:02:00,23.5,16.5,30.11,North,350,0.0,4.9,74,0.00,,,0.00,VWS V14.01,2013-03-02 13:02:00,
2013-03-02 08:03:00,23.4,16.3,30.11,NNW,344,5.7,5.7,74,0.00,,,0.00,VWS V14.01,2013-03-02 13:03:00,
2013-03-02 08:06:00,23.4,14.8,30.11,North,6,5.6,5.6,69,0.00,,,0.00,VWS V14.01,2013-03-02 13:06:00,
2013-03-02 08:07:00,23.3,16.1,30.11,North,2,4.7,5.6,74,0.00,,,0.08,VWS V14.01,2013-03-02 13:07:00,
2013-03-02 08:08:00,23.5,16.5,30.11,NNW,337,2.5,2.5,74,0.00,,,0.00,VWS V14.01,2013-03-02 13:08:00,
2013-03-02 08:11:00,23.2,16.1,30.16,NW,315,4.2,4.2,74,0.00,,,0.00,VWS V14.01,2013-03-02 13:11:00,
2013-03-02 08:12:00,23.5,16.3,30.11,North,351,1.1,3.7,74,0.00,,,0.00,VWS V14.01,2013-03-02 13:12:00,
2013-03-02 08:13:00,23.2,16.0,30.11,NNE,22,5.1,5.1,74,0.00,,,0.00,VWS V14.01,2013-03-02 13:13:00,
2013-03-02 08:14:00,23.5,16.4,30.11,NE,41,0.0,5.1,74,0.00,,,0.00,VWS V14.01,2013-03-02 13:14:00,
2013-03-02 08:16:00,23.3,16.3,30.11,North,0,3.5,3.5,74,0.00,,,0.00,VWS V14.01,2013-03-02 13:16:00,
2013-03-02 08:18:00,23.4,16.7,30.11,North,2,3.4,4.5,75,0.00,,,0.00,VWS V14.01,2013-03-02 13:18:00,
2013-03-02 08:19:00,23.4,16.6,30.10,NNW,341,2.7,3.4,75,0.00,,,0.00,VWS V14.01,2013-03-02 13:19:00,
2013-03-02 08:21:00,23.4,16.5,30.16,NW,325,1.0,3.7,74,0.00,,,0.00,VWS V14.01,2013-03-02 13:21:00,
2013-03-02 08:24:00,23.7,16.8,30.10,North,349,0.0,1.5,74,0.00,,,0.00,VWS V14.01,2013-03-02 13:24:00,
2013-03-02 08:25:00,23.4,16.5,30.11,WNW,293,2.0,2.0,75,0.00,,,0.00,VWS V14.01,2013-03-02 13:25:00,
2013-03-02 08:27:00,23.3,16.3,30.15,NNE,12,2.0,2.0,74,0.00,,,0.00,VWS V14.01,2013-03-02 13:27:00,
2013-03-02 08:29:00,23.6,16.7,30.11,North,349,1.5,2.5,75,0.00,,,0.00,VWS V14.01,2013-03-02 13:29:00,
2013-03-02 08:30:00,23.4,13.5,30.11,NNE,15,2.0,2.0,65,0.00,,,0.00,VWS V14.01,2013-03-02 13:30:00,
2013-03-02 08:31:00,23.6,16.9,30.12,North,2,0.0,0.0,75,0.00,,,0.00,VWS V14.01,2013-03-02 13:31:00,
2013-03-02 08:32:00,23.1,14.6,30.11,NE,40,3.0,3.5,69,0.00,,,0.00,VWS V14.01,2013-03-02 13:32:00,
2013-03-02 08:34:00,23.6,17.2,30.11,NW,326,0.0,0.0,76,0.00,,,0.00,VWS V14.01,2013-03-02 13:34:00,
2013-03-02 08:36:00,23.7,17.2,30.12,NNE,16,0.0,1.3,76,0.00,,,0.00,VWS V14.01,2013-03-02 13:36:00,
2013-03-02 08:37:00,23.7,17.1,30.11,NNW,333,0.0,0.0,76,0.00,,,0.00,VWS V14.01,2013-03-02 13:37:00,
2013-03-02 08:38:00,24.1,17.4,30.11,North,351,0.0,0.0,75,0.00,,,0.00,VWS V14.01,2013-03-02 13:38:00,
2013-03-02 08:41:00,24.0,16.9,30.11,NNW,332,1.5,2.7,74,0.00,,,0.00,VWS V14.01,2013-03-02 13:41:00,
2013-03-02 08:42:00,24.0,16.9,30.11,NNW,332,1.5,2.7,74,0.00,,,0.00,VWS V14.01,2013-03-02 13:42:00,
2013-03-02 08:43:00,23.6,16.5,30.11,NNE,16,4.4,4.4,74,0.00,,,0.00,VWS V14.01,2013-03-02 13:43:00,
2013-03-02 08:44:00,24.0,16.8,30.11,North,0,1.1,4.4,74,0.00,,,0.00,VWS V14.01,2013-03-02 13:44:00,
2013-03-02 08:47:00,24.5,17.2,30.10,North,1,0.0,0.0,73,0.00,,,0.00,VWS V14.01,2013-03-02 13:47:00,
2013-03-02 08:49:00,24.2,16.6,30.11,North,350,0.0,2.3,72,0.00,,,0.00,VWS V14.01,2013-03-02 13:49:00,
2013-03-02 08:53:00,24.2,16.7,30.16,NE,44,1.3,2.0,73,0.00,,,0.00,VWS V14.01,2013-03-02 13:53:00,
2013-03-02 08:55:00,24.4,16.5,30.10,NNW,335,0.0,4.4,72,0.00,,,0.00,VWS V14.01,2013-03-02 13:55:00,
2013-03-02 08:58:00,24.2,15.8,30.11,NNW,342,2.7,3.7,70,0.00,,,0.00,VWS V14.01,2013-03-02 13:58:00,
2013-03-02 09:00:00,24.1,16.0,30.10,North,351,4.0,4.0,71,0.00,,,0.00,VWS V14.01,2013-03-02 14:00:00,
2013-03-02 09:01:00,24.1,16.0,30.10,North,351,4.0,4.0,71,0.00,,,0.00,VWS V14.01,2013-03-02 14:01:00,
2013-03-02 09:04:00,23.8,15.3,30.11,NW,326,3.5,5.6,70,0.00,,,0.00,VWS V14.01,2013-03-02 14:04:00,
2013-03-02 09:06:00,24.8,16.8,30.11,NW,308,0.0,0.0,71,0.00,,,0.00,VWS V14.01,2013-03-02 14:06:00,
2013-03-02 09:07:00,24.3,16.0,30.11,North,0,2.2,2.2,70,0.00,,,0.00,VWS V14.01,2013-03-02 14:07:00,
2013-03-02 09:09:00,23.9,15.6,30.10,North,351,3.7,4.7,70,0.00,,,0.00,VWS V14.01,2013-03-02 14:09:00,
2013-03-02 09:12:00,23.9,15.7,30.10,NNW,338,1.6,1.6,70,0.00,,,0.00,VWS V14.01,2013-03-02 14:12:00,
2013-03-02 09:13:00,23.9,15.5,30.10,NNW,335,3.0,3.0,70,0.00,,,0.00,VWS V14.01,2013-03-02 14:13:00,
2013-03-02 09:15:00,24.2,16.3,30.11,NW,315,0.0,0.0,71,0.00,,,0.00,VWS V14.01,2013-03-02 14:15:00,
2013-03-02 09:18:00,24.9,17.0,30.10,NNW,344,0.0,0.0,72,0.00,,,0.00,VWS V14.01,2013-03-02 14:18:00,
2013-03-02 09:19:00,24.6,16.7,30.10,NNW,335,0.0,0.0,72,0.00,,,0.00,VWS V14.01,2013-03-02 14:19:00,
2013-03-02 09:20:00,23.9,15.6,30.10,North,351,4.5,4.5,70,0.00,,,0.00,VWS V14.01,2013-03-02 14:20:00,
2013-03-02 09:24:00,23.9,15.8,30.10,NW,324,2.3,3.5,71,0.00,,,0.00,VWS V14.01,2013-03-02 14:24:00,
2013-03-02 09:26:00,24.2,16.3,30.12,North,3,0.0,4.9,71,0.00,,,0.00,VWS V14.01,2013-03-02 14:26:00,
2013-03-02 09:27:00,24.6,16.7,30.11,North,351,0.0,2.5,72,0.00,,,0.00,VWS V14.01,2013-03-02 14:27:00,
2013-03-02 09:29:00,23.5,15.1,30.11,NNW,332,8.1,8.1,70,0.00,,,0.00,VWS V14.01,2013-03-02 14:29:00,
2013-03-02 09:31:00,24.5,14.4,30.10,NNW,332,0.0,4.4,65,0.00,,,0.00,VWS V14.01,2013-03-02 14:31:00,
2013-03-02 09:33:00,24.5,16.5,30.11,NNW,330,0.0,4.9,71,0.00,,,0.00,VWS V14.01,2013-03-02 14:33:00,
2013-03-02 09:34:00,24.2,16.0,30.11,NNE,12,0.0,4.4,70,0.00,,,0.00,VWS V14.01,2013-03-02 14:34:00,
2013-03-02 09:36:00,24.6,16.4,30.10,NNW,336,2.0,2.0,70,0.00,,,0.00,VWS V14.01,2013-03-02 14:36:00,
2013-03-02 09:39:00,24.6,16.5,30.10,NNE,16,3.9,3.9,71,0.00,,,0.00,VWS V14.01,2013-03-02 14:39:00,
2013-03-02 09:40:00,24.5,16.4,30.11,North,7,0.0,3.9,71,0.00,,,0.00,VWS V14.01,2013-03-02 14:40:00,
2013-03-02 09:42:00,24.7,16.3,30.11,NW,324,0.0,4.5,70,0.00,,,0.00,VWS V14.01,2013-03-02 14:42:00,
2013-03-02 09:44:00,25.0,17.0,30.10,NNE,30,0.0,4.2,71,0.00,,,0.00,VWS V14.01,2013-03-02 14:44:00,
2013-03-02 09:46:00,24.3,16.0,30.10,NNE,18,4.0,4.2,70,0.00,,,0.00,VWS V14.01,2013-03-02 14:46:00,
2013-03-02 09:47:00,24.8,16.5,30.10,NNW,346,1.0,4.2,70,0.00,,,0.00,VWS V14.01,2013-03-02 14:47:00,
2013-03-02 09:48:00,24.0,15.6,30.10,NNE,29,4.7,4.7,70,0.00,,,0.00,VWS V14.01,2013-03-02 14:48:00,
2013-03-02 09:50:00,24.1,15.5,30.15,North,3,3.2,5.2,69,0.00,,,0.00,VWS V14.01,2013-03-02 14:50:00,
2013-03-02 09:51:00,24.5,16.0,30.11,NNE,24,0.0,3.4,70,0.00,,,0.00,VWS V14.01,2013-03-02 14:51:00,
2013-03-02 09:53:00,24.4,13.6,30.10,North,4,3.9,6.3,63,0.00,,,0.00,VWS V14.01,2013-03-02 14:53:00,
2013-03-02 09:55:00,24.1,12.8,30.10,North,349,3.9,3.9,61,0.00,,,0.00,VWS V14.01,2013-03-02 14:55:00,
2013-03-02 09:56:00,24.5,15.2,30.11,North,350,2.8,3.9,67,0.00,,,0.00,VWS V14.01,2013-03-02 14:56:00,
2013-03-02 09:58:00,24.6,15.5,30.11,NNE,22,2.3,3.4,68,0.00,,,0.00,VWS V14.01,2013-03-02 14:58:00,
2013-03-02 09:59:00,24.5,15.2,30.11,North,351,1.5,4.7,67,0.00,,,0.00,VWS V14.01,2013-03-02 14:59:00,
2013-03-02 10:00:00,24.5,15.4,30.11,North,351,2.7,2.7,68,0.00,,,0.00,VWS V14.01,2013-03-02 15:00:00,
2013-03-02 10:03:00,24.0,14.5,30.10,NNE,15,6.1,6.8,67,0.00,,,0.00,VWS V14.01,2013-03-02 15:03:00,
2013-03-02 10:04:00,24.6,15.4,30.10,NNE,16,2.2,6.8,67,0.00,,,0.00,VWS V14.01,2013-03-02 15:04:00,
2013-03-02 10:05:00,25.0,16.0,30.11,North,360,2.8,6.8,68,0.00,,,0.08,VWS V14.01,2013-03-02 15:05:00,
2013-03-02 10:09:00,24.8,15.6,30.10,NNW,329,4.5,9.5,68,0.00,,,0.00,VWS V14.01,2013-03-02 15:09:00,
2013-03-02 10:10:00,23.9,14.7,30.10,NW,323,4.9,9.5,67,0.00,,,0.00,VWS V14.01,2013-03-02 15:10:00,
2013-03-02 10:15:00,24.5,14.9,30.16,NNW,333,5.1,9.5,66,0.00,,,0.00,VWS V14.01,2013-03-02 15:15:00,
2013-03-02 10:16:00,25.3,15.8,30.11,NE,43,1.1,9.5,67,0.00,,,0.00,VWS V14.01,2013-03-02 15:16:00,
2013-03-02 10:17:00,25.1,15.4,30.10,NNW,348,2.7,9.5,66,0.00,,,0.00,VWS V14.01,2013-03-02 15:17:00,
2013-03-02 10:21:00,24.9,14.8,30.11,North,2,3.7,9.5,65,0.00,,,0.00,VWS V14.01,2013-03-02 15:21:00,
2013-03-02 10:22:00,25.4,15.2,30.11,North,2,1.3,9.5,65,0.00,,,0.00,VWS V14.01,2013-03-02 15:22:00,
2013-03-02 10:23:00,24.4,14.2,30.10,NW,312,6.1,9.5,65,0.00,,,0.00,VWS V14.01,2013-03-02 15:23:00,
2013-03-02 10:25:00,25.1,15.2,30.10,North,0,3.2,9.5,65,0.00,,,0.00,VWS V14.01,2013-03-02 15:25:00,
2013-03-02 10:28:00,24.9,14.6,30.11,WNW,303,2.0,9.5,65,0.00,,,0.00,VWS V14.01,2013-03-02 15:28:00,
2013-03-02 10:29:00,25.4,15.4,30.11,NW,318,1.6,9.5,65,0.00,,,0.00,VWS V14.01,2013-03-02 15:29:00,
2013-03-02 10:30:00,24.4,13.9,30.10,NW,313,6.1,9.5,64,0.00,,,0.00,VWS V14.01,2013-03-02 15:30:00,
2013-03-02 10:33:00,24.8,15.1,30.09,NNW,331,6.4,9.5,66,0.00,,,0.00,VWS V14.01,2013-03-02 15:33:00,
2013-03-02 10:34:00,25.2,15.7,30.10,NNE,15,0.0,9.5,67,0.00,,,0.00,VWS V14.01,2013-03-02 15:34:00,
2013-03-02 10:38:00,24.8,14.7,30.10,NNE,17,3.0,10.2,65,0.00,,,0.00,VWS V14.01,2013-03-02 15:38:00,
2013-03-02 10:39:00,25.0,14.5,30.10,North,351,3.4,10.2,64,0.00,,,0.00,VWS V14.01,2013-03-02 15:39:00,
2013-03-02 10:40:00,24.9,14.3,30.10,NNW,336,5.2,10.2,63,0.00,,,0.00,VWS V14.01,2013-03-02 15:40:00,
2013-03-02 10:44:00,25.3,15.0,30.09,North,351,6.4,10.2,65,0.00,,,0.00,VWS V14.01,2013-03-02 15:44:00,
2013-03-02 10:45:00,24.5,14.2,30.09,NW,321,7.8,10.2,64,0.00,,,0.00,VWS V14.01,2013-03-02 15:45:00,
2013-03-02 10:46:00,24.5,14.2,30.10,WNW,299,5.7,10.2,65,0.00,,,0.00,VWS V14.01,2013-03-02 15:46:00,
2013-03-02 10:48:00,24.8,14.9,30.10,NW,318,6.1,10.2,66,0.00,,,0.00,VWS V14.01,2013-03-02 15:48:00,
2013-03-02 10:49:00,25.4,15.9,30.10,WNW,299,3.9,10.2,67,0.00,,,0.00,VWS V14.01,2013-03-02 15:49:00,
2013-03-02 10:53:00,24.6,13.8,30.09,WNW,302,7.6,10.2,63,0.00,,,0.00,VWS V14.01,2013-03-02 15:53:00,
2013-03-02 10:54:00,25.8,15.8,30.10,NE,41,4.9,10.2,65,0.00,,,0.00,VWS V14.01,2013-03-02 15:54:00,
2013-03-02 10:59:00,26.1,15.3,30.10,North,1,3.9,10.2,63,0.00,,,0.00,VWS V14.01,2013-03-02 15:59:00,
2013-03-02 11:00:00,25.0,13.9,30.10,NNE,22,4.5,10.2,62,0.00,,,0.00,VWS V14.01,2013-03-02 16:00:00,
2013-03-02 11:05:00,24.9,13.9,30.10,NW,326,5.7,5.7,62,0.00,,,0.00,VWS V14.01,2013-03-02 16:05:00,
2013-03-02 11:06:00,25.7,15.0,30.10,NNE,27,4.4,5.7,63,0.00,,,0.00,VWS V14.01,2013-03-02 16:06:00,
2013-03-02 11:07:00,25.4,14.3,30.10,NW,321,4.9,6.1,62,0.00,,,0.00,VWS V14.01,2013-03-02 16:07:00,
2013-03-02 11:08:00,25.7,14.8,30.10,North,350,4.9,4.9,63,0.00,,,0.00,VWS V14.01,2013-03-02 16:08:00,
2013-03-02 11:10:00,25.0,14.6,30.10,NNW,342,8.8,12.1,64,0.00,,,0.00,VWS V14.01,2013-03-02 16:10:00,
2013-03-02 11:11:00,24.6,14.2,30.09,NW,307,6.9,8.8,64,0.00,,,0.00,VWS V14.01,2013-03-02 16:11:00,
2013-03-02 11:12:00,24.7,14.2,30.09,NNW,332,10.0,12.9,64,0.00,,,0.00,VWS V14.01,2013-03-02 16:12:00,
2013-03-02 11:13:00,25.1,15.2,30.10,NNW,332,8.8,8.8,66,0.00,,,0.00,VWS V14.01,2013-03-02 16:13:00,
2013-03-02 11:17:00,25.4,14.6,30.10,NNW,333,7.1,7.1,63,0.00,,,0.00,VWS V14.01,2013-03-02 16:17:00,
2013-03-02 11:18:00,24.4,13.0,30.10,NW,326,13.6,13.6,61,0.00,,,0.00,VWS V14.01,2013-03-02 16:18:00,
2013-03-02 11:20:00,24.9,13.3,30.10,NW,305,6.8,12.4,61,0.00,,,0.00,VWS V14.01,2013-03-02 16:20:00,
2013-03-02 11:23:00,24.8,13.7,30.10,NW,312,9.9,9.9,62,0.00,,,0.00,VWS V14.01,2013-03-02 16:23:00,
2013-03-02 11:24:00,24.8,13.7,30.10,NW,326,10.9,10.9,62,0.00,,,0.00,VWS V14.01,2013-03-02 16:24:00,
2013-03-02 11:25:00,25.7,15.0,30.09,NW,325,8.0,10.9,64,0.00,,,0.00,VWS V14.01,2013-03-02 16:25:00,
2013-03-02 11:29:00,27.9,15.7,30.10,North,10,2.5,4.0,60,0.00,,,0.00,VWS V14.01,2013-03-02 16:29:00,
2013-03-02 11:30:00,27.1,14.7,30.10,NNE,16,3.5,4.0,59,0.00,,,0.00,VWS V14.01,2013-03-02 16:30:00,
2013-03-02 11:31:00,27.6,14.6,30.10,NE,43,2.5,3.5,58,0.00,,,0.00,VWS V14.01,2013-03-02 16:31:00,
2013-03-02 11:35:00,26.1,13.1,30.09,NNW,332,6.4,6.4,57,0.00,,,0.00,VWS V14.01,2013-03-02 16:35:00,
2013-03-02 11:36:00,27.4,14.7,30.09,NW,314,2.8,6.4,58,0.00,,,0.00,VWS V14.01,2013-03-02 16:36:00,
2013-03-02 11:37:00,25.5,10.6,30.09,NNW,327,11.9,11.9,53,0.00,,,0.00,VWS V14.01,2013-03-02 16:37:00,
2013-03-02 11:41:00,25.8,12.4,30.10,NE,53,5.6,6.9,56,0.00,,,0.00,VWS V14.01,2013-03-02 16:41:00,
2013-03-02 11:42:00,27.1,13.8,30.09,NNW,336,4.2,6.4,57,0.00,,,0.00,VWS V14.01,2013-03-02 16:42:00,
2013-03-02 11:43:00,27.7,10.7,30.08,NNW,341,5.7,5.7,48,0.00,,,0.00,VWS V14.01,2013-03-02 16:43:00,
2013-03-02 11:46:00,26.1,12.2,30.09,NW,324,6.3,8.5,55,0.00,,,0.00,VWS V14.01,2013-03-02 16:46:00,
2013-03-02 11:48:00,25.8,11.8,30.09,NW,310,10.9,10.9,55,0.00,,,0.00,VWS V14.01,2013-03-02 16:48:00,
2013-03-02 11:49:00,26.2,12.8,30.09,NNW,327,7.5,9.7,56,0.00,,,0.00,VWS V14.01,2013-03-02 16:49:00,
2013-03-02 11:51:00,26.2,12.5,30.09,NW,325,7.3,8.3,55,0.00,,,0.00,VWS V14.01,2013-03-02 16:51:00,
2013-03-02 11:53:00,26.6,12.5,30.09,NNW,342,5.9,7.6,55,0.00,,,0.00,VWS V14.01,2013-03-02 16:53:00,
2013-03-02 11:54:00,26.5,12.2,30.08,NW,326,6.9,6.9,54,0.00,,,0.00,VWS V14.01,2013-03-02 16:54:00,
2013-03-02 11:56:00,26.5,12.7,30.08,NNW,333,5.4,10.5,55,0.00,,,0.00,VWS V14.01,2013-03-02 16:56:00,
2013-03-02 11:59:00,27.1,12.5,30.09,NNW,345,7.6,8.0,54,0.00,,,0.00,VWS V14.01,2013-03-02 16:59:00,
2013-03-02 12:00:00,27.7,13.1,30.09,NNW,329,5.4,7.6,54,0.00,,,0.00,VWS V14.01,2013-03-02 17:00:00,
2013-03-02 12:01:00,26.2,11.7,30.08,NNE,28,6.8,6.8,53,0.00,,,0.00,VWS V14.01,2013-03-02 17:01:00,
2013-03-02 12:03:00,27.8,13.0,30.08,North,351,5.1,5.1,53,0.00,,,0.00,VWS V14.01,2013-03-02 17:03:00,
2013-03-02 12:04:00,26.3,11.1,30.08,North,6,7.1,7.1,52,0.00,,,0.00,VWS V14.01,2013-03-02 17:04:00,
2013-03-02 12:06:00,26.6,12.0,30.08,NNE,21,5.7,6.6,53,0.00,,,0.00,VWS V14.01,2013-03-02 17:06:00,
2013-03-02 12:07:00,26.9,8.6,30.08,North,2,6.8,6.8,45,0.00,,,0.00,VWS V14.01,2013-03-02 17:07:00,
2013-03-02 12:09:00,26.9,11.8,30.08,North,2,5.4,5.6,52,0.00,,,0.00,VWS V14.01,2013-03-02 17:09:00,
2013-03-02 12:12:00,27.3,12.3,30.08,North,349,6.3,6.3,53,0.00,,,0.00,VWS V14.01,2013-03-02 17:12:00,
2013-03-02 12:13:00,27.2,12.4,30.08,North,349,6.4,6.4,53,0.00,,,0.00,VWS V14.01,2013-03-02 17:13:00,
2013-03-02 12:14:00,27.4,12.9,30.10,NNE,24,3.0,4.0,54,0.00,,,0.00,VWS V14.01,2013-03-02 17:14:00,
2013-03-02 12:17:00,28.4,13.4,30.08,NNW,345,4.0,4.0,53,0.00,,,0.00,VWS V14.01,2013-03-02 17:17:00,
2013-03-02 12:18:00,28.0,13.2,30.07,NNW,347,2.7,4.0,53,0.00,,,0.00,VWS V14.01,2013-03-02 17:18:00,
2013-03-02 12:19:00,27.2,11.4,30.07,NNW,327,6.1,6.1,51,0.00,,,0.00,VWS V14.01,2013-03-02 17:19:00,
2013-03-02 12:21:00,27.2,11.5,30.08,NE,39,4.2,4.2,51,0.00,,,0.00,VWS V14.01,2013-03-02 17:21:00,
2013-03-02 12:23:00,26.5,10.6,30.08,NE,43,4.7,5.6,50,0.00,,,0.00,VWS V14.01,2013-03-02 17:23:00,
2013-03-02 12:24:00,28.2,13.0,30.08,North,3,4.0,6.3,52,0.00,,,0.00,VWS V14.01,2013-03-02 17:24:00,
2013-03-02 12:25:00,27.8,12.7,30.08,NNW,338,4.5,4.5,53,0.00,,,0.00,VWS V14.01,2013-03-02 17:25:00,
2013-03-02 12:27:00,27.0,11.5,30.08,NNW,329,7.3,7.3,52,0.00,,,0.00,VWS V14.01,2013-03-02 17:27:00,
2013-03-02 12:28:00,27.5,11.7,30.12,North,2,4.9,7.3,51,0.00,,,0.00,VWS V14.01,2013-03-02 17:28:00,
2013-03-02 12:29:00,26.9,11.1,30.08,NE,38,6.8,6.8,51,0.00,,,0.00,VWS V14.01,2013-03-02 17:29:00,
2013-03-02 12:31:00,27.4,11.6,30.08,NW,313,4.7,4.7,51,0.00,,,0.00,VWS V14.01,2013-03-02 17:31:00,
2013-03-02 12:33:00,27.6,10.5,30.08,North,9,4.2,4.2,48,0.00,,,0.00,VWS V14.01,2013-03-02 17:33:00,
2013-03-02 12:35:00,27.9,11.7,30.08,WNW,296,0.0,0.0,50,0.00,,,0.00,VWS V14.01,2013-03-02 17:35:00,
2013-03-02 12:38:00,28.0,12.1,30.07,NNE,21,3.9,6.4,51,0.00,,,0.00,VWS V14.01,2013-03-02 17:38:00,
2013-03-02 12:39:00,26.6,10.6,30.08,NNE,22,6.1,6.1,50,0.00,,,0.00,VWS V14.01,2013-03-02 17:39:00,
2013-03-02 12:41:00,25.7,9.8,30.08,NNE,23,9.2,9.2,50,0.00,,,0.00,VWS V14.01,2013-03-02 17:41:00,
2013-03-02 12:43:00,26.3,9.9,30.08,NNE,29,8.1,8.1,49,0.00,,,0.00,VWS V14.01,2013-03-02 17:43:00,
2013-03-02 12:45:00,26.4,11.4,30.08,NNE,15,4.7,7.6,53,0.00,,,0.00,VWS V14.01,2013-03-02 17:45:00,
2013-03-02 12:46:00,26.8,10.6,30.08,NNE,33,4.2,7.5,50,0.00,,,0.00,VWS V14.01,2013-03-02 17:46:00,
2013-03-02 12:50:00,26.7,11.3,30.06,NNE,21,8.1,8.1,52,0.00,,,0.00,VWS V14.01,2013-03-02 17:50:00,
2013-03-02 12:51:00,27.6,12.2,30.06,NNW,327,4.7,6.9,52,0.00,,,0.00,VWS V14.01,2013-03-02 17:51:00,
2013-03-02 12:52:00,27.6,12.2,30.06,NNW,327,4.7,6.9,52,0.00,,,0.00,VWS V14.01,2013-03-02 17:52:00,
2013-03-02 12:53:00,27.5,11.8,30.08,NNW,342,5.9,5.9,51,0.00,,,0.00,VWS V14.01,2013-03-02 17:53:00,
2013-03-02 12:56:00,26.4,10.9,30.08,NNW,327,7.3,7.3,52,0.00,,,0.00,VWS V14.01,2013-03-02 17:56:00,
2013-03-02 12:57:00,26.8,11.6,30.08,NNE,30,6.6,7.3,52,0.00,,,0.00,VWS V14.01,2013-03-02 17:57:00,
2013-03-02 13:00:00,28.3,12.6,30.08,North,4,3.0,5.9,51,0.00,,,0.00,VWS V14.01,2013-03-02 18:00:00,
2013-03-02 13:02:00,27.3,11.6,30.07,NNW,346,8.3,8.3,51,0.00,,,0.00,VWS V14.01,2013-03-02 18:02:00,
2013-03-02 13:03:00,28.4,13.1,30.07,NNE,18,1.3,8.3,52,0.00,,,0.00,VWS V14.01,2013-03-02 18:03:00,
2013-03-02 13:07:00,27.1,10.8,30.07,NNE,13,5.1,8.3,50,0.00,,,0.00,VWS V14.01,2013-03-02 18:07:00,
2013-03-02 13:08:00,27.5,11.3,30.07,NNW,332,4.4,8.3,50,0.00,,,0.00,VWS V14.01,2013-03-02 18:08:00,
2013-03-02 13:10:00,28.4,12.7,30.07,North,349,6.3,8.3,51,0.00,,,0.00,VWS V14.01,2013-03-02 18:10:00,
2013-03-02 13:11:00,28.1,12.9,30.07,NNW,332,3.9,8.3,52,0.00,,,0.00,VWS V14.01,2013-03-02 18:11:00,
2013-03-02 13:12:00,28.1,12.9,30.07,NNW,332,3.9,8.3,52,0.00,,,0.00,VWS V14.01,2013-03-02 18:12:00,
2013-03-02 13:13:00,28.3,13.2,30.07,NNW,340,3.7,8.3,53,0.00,,,0.00,VWS V14.01,2013-03-02 18:13:00,
2013-03-02 13:18:00,27.5,12.9,30.06,NNW,332,4.5,11.6,54,0.00,,,0.00,VWS V14.01,2013-03-02 18:18:00,
2013-03-02 13:19:00,28.0,13.5,30.07,NE,43,4.7,11.6,54,0.00,,,0.00,VWS V14.01,2013-03-02 18:19:00,
2013-03-02 13:20:00,28.4,13.7,30.07,NNW,342,3.5,11.6,54,0.00,,,0.00,VWS V14.01,2013-03-02 18:20:00,
2013-03-02 13:21:00,28.2,13.4,30.07,NNW,345,3.5,11.6,53,0.00,,,0.00,VWS V14.01,2013-03-02 18:21:00,
2013-03-02 13:24:00,27.5,12.2,30.07,NNE,20,4.5,11.6,52,0.00,,,0.00,VWS V14.01,2013-03-02 18:24:00,
2013-03-02 13:26:00,27.0,11.8,30.07,NW,324,4.5,11.6,52,0.00,,,0.00,VWS V14.01,2013-03-02 18:26:00,
2013-03-02 13:27:00,26.1,9.3,30.06,WNW,302,5.7,11.6,49,0.00,,,0.00,VWS V14.01,2013-03-02 18:27:00,
2013-03-02 13:28:00,26.8,11.7,30.07,NNW,336,7.6,11.6,52,0.00,,,0.00,VWS V14.01,2013-03-02 18:28:00,
2013-03-02 13:29:00,26.7,11.3,30.06,NNW,342,7.8,11.6,52,0.00,,,0.00,VWS V14.01,2013-03-02 18:29:00,
2013-03-02 13:33:00,27.7,11.9,30.06,NNE,14,4.2,11.6,51,0.00,,,0.00,VWS V14.01,2013-03-02 18:33:00,
2013-03-02 13:34:00,27.3,11.1,30.06,North,11,4.0,11.6,50,0.00,,,0.00,VWS V14.01,2013-03-02 18:34:00,
2013-03-02 13:35:00,27.5,9.1,30.07,NE,37,2.5,11.6,45,0.00,,,0.00,VWS V14.01,2013-03-02 18:35:00,
2013-03-02 13:39:00,26.6,10.5,30.06,NE,35,7.3,11.6,50,0.00,,,0.00,VWS V14.01,2013-03-02 18:39:00,
2013-03-02 13:40:00,26.6,10.7,30.06,NNE,28,7.5,11.6,51,0.00,,,0.00,VWS V14.01,2013-03-02 18:40:00,
2013-03-02 13:42:00,27.3,12.2,30.06,NNW,342,5.2,11.6,52,0.00,,,0.00,VWS V14.01,2013-03-02 18:42:00,
2013-03-02 13:47:00,26.9,11.5,30.05,ENE,70,3.4,11.6,52,0.00,,,0.00,VWS V14.01,2013-03-02 18:47:00,
2013-03-02 13:48:00,27.0,11.6,30.05,NNE,27,4.5,11.6,52,0.00,,,0.00,VWS V14.01,2013-03-02 18:48:00,
2013-03-02 13:50:00,28.0,12.5,30.10,North,349,3.5,11.6,52,0.00,,,0.00,VWS V14.01,2013-03-02 18:50:00,
2013-03-02 13:52:00,26.8,11.3,30.06,North,11,8.8,11.6,51,0.00,,,0.00,VWS V14.01,2013-03-02 18:52:00,
2013-03-02 13:56:00,26.8,11.6,30.07,North,5,7.8,11.6,52,0.00,,,0.00,VWS V14.01,2013-03-02 18:56:00,
2013-03-02 13:58:00,27.0,12.1,30.06,NNE,16,5.4,11.6,53,0.00,,,0.00,VWS V14.01,2013-03-02 18:58:00,
2013-03-02 13:59:00,27.4,11.8,30.06,NNW,348,4.0,11.6,51,0.00,,,0.00,VWS V14.01,2013-03-02 18:59:00,
2013-03-02 14:02:00,26.8,11.1,30.06,NE,40,5.4,5.4,51,0.00,,,0.00,VWS V14.01,2013-03-02 19:02:00,
2013-03-02 14:03:00,26.0,9.9,30.06,NE,38,7.3,7.3,50,0.00,,,0.00,VWS V14.01,2013-03-02 19:03:00,
2013-03-02 14:05:00,27.1,11.8,30.06,North,9,5.7,6.8,52,0.00,,,0.00,VWS V14.01,2013-03-02 19:05:00,
2013-03-02 14:06:00,27.1,12.4,30.06,NE,56,3.2,5.7,53,0.00,,,0.00,VWS V14.01,2013-03-02 19:06:00,
2013-03-02 14:08:00,26.7,11.2,30.06,North,2,6.9,9.2,51,0.00,,,0.00,VWS V14.01,2013-03-02 19:08:00,
2013-03-02 14:10:00,26.4,11.9,30.06,NNE,28,8.0,8.0,54,0.00,,,0.00,VWS V14.01,2013-03-02 19:10:00,
2013-03-02 14:11:00,26.4,11.9,30.06,NNE,28,8.0,8.0,54,0.00,,,0.00,VWS V14.01,2013-03-02 19:11:00,
2013-03-02 14:13:00,26.4,11.8,30.06,NNE,32,5.6,7.1,54,0.00,,,0.00,VWS V14.01,2013-03-02 19:13:00,
2013-03-02 14:16:00,27.7,12.4,30.05,North,0,3.7,4.0,52,0.00,,,0.00,VWS V14.01,2013-03-02 19:16:00,
2013-03-02 14:17:00,27.6,11.9,30.06,NW,323,4.2,6.8,51,0.00,,,0.00,VWS V14.01,2013-03-02 19:17:00,
2013-03-02 14:19:00,27.7,12.2,30.11,NNE,27,3.0,3.4,51,0.00,,,0.00,VWS V14.01,2013-03-02 19:19:00,
2013-03-02 14:22:00,27.1,11.6,30.06,NNW,336,5.6,6.4,52,0.00,,,0.00,VWS V14.01,2013-03-02 19:22:00,
2013-03-02 14:23:00,27.8,12.5,30.05,NNW,338,4.5,5.6,52,0.00,,,0.00,VWS V14.01,2013-03-02 19:23:00,
2013-03-02 14:24:00,27.7,12.1,30.05,North,351,3.4,3.4,51,0.00,,,0.00,VWS V14.01,2013-03-02 19:24:00,
2013-03-02 14:28:00,28.0,12.4,30.06,NE,43,4.0,4.0,52,0.00,,,0.00,VWS V14.01,2013-03-02 19:28:00,
2013-03-02 14:30:00,27.4,12.0,30.06,NNE,24,5.4,5.4,52,0.00,,,0.00,VWS V14.01,2013-03-02 19:30:00,
2013-03-02 14:31:00,26.7,11.6,30.06,North,10,6.3,6.6,52,0.00,,,0.00,VWS V14.01,2013-03-02 19:31:00,
2013-03-02 14:33:00,25.9,10.6,30.06,NNE,23,7.3,7.3,52,0.00,,,0.00,VWS V14.01,2013-03-02 19:33:00,
2013-03-02 14:34:00,26.6,11.3,30.06,NNE,25,9.2,9.2,52,0.00,,,0.00,VWS V14.01,2013-03-02 19:34:00,
2013-03-02 14:36:00,27.2,12.0,30.05,NNW,343,5.4,10.2,52,0.00,,,0.00,VWS V14.01,2013-03-02 19:36:00,
2013-03-02 14:37:00,27.1,12.3,30.06,WNW,301,5.2,10.2,53,0.00,,,0.00,VWS V14.01,2013-03-02 19:37:00,
2013-03-02 14:39:00,26.5,11.6,30.06,NNW,337,7.5,8.5,53,0.00,,,0.00,VWS V14.01,2013-03-02 19:39:00,
2013-03-02 14:42:00,27.2,12.4,30.11,NW,315,4.5,6.8,53,0.00,,,0.00,VWS V14.01,2013-03-02 19:42:00,
2013-03-02 14:44:00,27.5,12.7,30.05,North,349,4.9,6.4,53,0.00,,,0.00,VWS V14.01,2013-03-02 19:44:00,
2013-03-02 14:45:00,26.5,11.6,30.05,NNE,26,4.4,4.9,53,0.00,,,0.00,VWS V14.01,2013-03-02 19:45:00,
2013-03-02 14:47:00,26.8,12.3,30.06,NNE,27,5.7,7.6,54,0.00,,,0.00,VWS V14.01,2013-03-02 19:47:00,
2013-03-02 14:51:00,27.6,13.3,30.06,NW,312,4.0,5.1,54,0.00,,,0.00,VWS V14.01,2013-03-02 19:51:00,
2013-03-02 14:52:00,27.0,11.8,30.05,NNW,339,4.5,6.8,52,0.00,,,0.00,VWS V14.01,2013-03-02 19:52:00,
2013-03-02 14:53:00,27.1,11.8,30.04,NNW,337,7.8,7.8,52,0.00,,,0.00,VWS V14.01,2013-03-02 19:53:00,
2013-03-02 14:56:00,26.5,11.7,30.06,ENE,57,4.4,4.5,53,0.00,,,0.00,VWS V14.01,2013-03-02 19:56:00,
2013-03-02 14:57:00,27.1,11.5,30.06,NE,44,6.1,6.9,51,0.00,,,0.00,VWS V14.01,2013-03-02 19:57:00,
2013-03-02 14:58:00,26.2,11.6,30.07,NNE,14,3.9,3.9,53,0.00,,,0.00,VWS V14.01,2013-03-02 19:58:00,
2013-03-02 15:02:00,27.4,12.8,30.05,NNW,332,2.2,2.2,54,0.00,,,0.00,VWS V14.01,2013-03-02 20:02:00,
2013-03-02 15:03:00,27.3,12.5,30.06,NNW,335,3.9,3.9,53,0.00,,,0.00,VWS V14.01,2013-03-02 20:03:00,
2013-03-02 15:05:00,26.9,12.3,30.06,NNE,26,3.2,3.2,54,0.00,,,0.00,VWS V14.01,2013-03-02 20:05:00,
2013-03-02 15:07:00,27.3,12.2,30.06,North,9,3.9,3.9,53,0.00,,,0.00,VWS V14.01,2013-03-02 20:07:00,
2013-03-02 15:08:00,26.2,10.7,30.06,North,7,5.6,5.6,51,0.00,,,0.00,VWS V14.01,2013-03-02 20:08:00,
2013-03-02 15:09:00,26.2,10.7,30.06,North,7,5.6,5.6,51,0.00,,,0.00,VWS V14.01,2013-03-02 20:09:00,
2013-03-02 15:11:00,27.3,12.7,30.06,NNW,332,4.9,7.1,54,0.00,,,0.00,VWS V14.01,2013-03-02 20:11:00,
2013-03-02 15:13:00,26.4,12.0,30.05,NNE,23,5.9,6.9,54,0.00,,,0.00,VWS V14.01,2013-03-02 20:13:00,
2013-03-02 15:14:00,26.2,11.8,30.07,NNE,25,5.7,7.5,54,0.00,,,0.00,VWS V14.01,2013-03-02 20:14:00,
2013-03-02 15:16:00,26.7,12.6,30.06,North,1,8.3,8.7,55,0.00,,,0.00,VWS V14.01,2013-03-02 20:16:00,
2013-03-02 15:19:00,26.8,12.7,30.06,North,349,6.3,6.6,55,0.00,,,0.00,VWS V14.01,2013-03-02 20:19:00,
2013-03-02 15:20:00,26.6,12.7,30.06,NNE,31,3.9,6.3,55,0.00,,,0.00,VWS V14.01,2013-03-02 20:20:00,
2013-03-02 15:21:00,26.2,12.4,30.04,NE,43,7.6,7.6,55,0.00,,,0.00,VWS V14.01,2013-03-02 20:21:00,
2013-03-02 15:22:00,26.1,12.2,30.04,North,8,8.1,8.1,55,0.00,,,0.00,VWS V14.01,2013-03-02 20:22:00,
2013-03-02 15:25:00,26.4,12.2,30.05,NNE,25,7.3,7.3,54,0.00,,,0.00,VWS V14.01,2013-03-02 20:25:00,
2013-03-02 15:27:00,26.7,12.6,30.06,NNE,21,5.7,6.9,55,0.00,,,0.00,VWS V14.01,2013-03-02 20:27:00,
2013-03-02 15:29:00,26.1,12.2,30.06,NNE,28,5.1,7.8,55,0.00,,,0.00,VWS V14.01,2013-03-02 20:29:00,
2013-03-02 15:32:00,26.9,13.0,30.06,NE,38,3.4,6.1,55,0.00,,,0.00,VWS V14.01,2013-03-02 20:32:00,
2013-03-02 15:33:00,27.9,13.9,30.11,NNE,30,1.3,3.9,55,0.00,,,0.00,VWS V14.01,2013-03-02 20:33:00,
2013-03-02 15:34:00,26.3,12.2,30.06,NE,36,6.4,6.4,54,0.00,,,0.00,VWS V14.01,2013-03-02 20:34:00,
2013-03-02 15:35:00,26.2,11.7,30.05,NE,46,5.6,6.4,54,0.00,,,0.00,VWS V14.01,2013-03-02 20:35:00,
2013-03-02 15:37:00,26.4,12.1,30.06,NE,37,5.6,5.6,54,0.00,,,0.00,VWS V14.01,2013-03-02 20:37:00,
2013-03-02 15:38:00,26.5,12.6,30.06,NNE,25,3.9,8.5,55,0.00,,,0.00,VWS V14.01,2013-03-02 20:38:00,
2013-03-02 15:41:00,26.3,12.3,30.06,NE,48,6.9,7.1,55,0.00,,,0.00,VWS V14.01,2013-03-02 20:41:00,
2013-03-02 15:42:00,25.8,11.8,30.06,NE,44,7.8,7.8,55,0.00,,,0.00,VWS V14.01,2013-03-02 20:42:00,
2013-03-02 15:45:00,25.7,11.9,30.06,NNE,33,10.4,10.4,55,0.00,,,0.00,VWS V14.01,2013-03-02 20:45:00,
2013-03-02 15:47:00,26.3,12.7,30.06,North,1,6.8,6.8,56,0.00,,,0.00,VWS V14.01,2013-03-02 20:47:00,
2013-03-02 15:48:00,26.3,12.8,30.06,NNE,30,3.9,6.8,56,0.00,,,0.00,VWS V14.01,2013-03-02 20:48:00,
2013-03-02 15:49:00,26.9,13.5,30.06,NE,44,3.7,3.9,57,0.00,,,0.00,VWS V14.01,2013-03-02 20:49:00,
2013-03-02 15:51:00,26.7,12.8,30.06,North,1,3.2,4.7,55,0.00,,,0.00,VWS V14.01,2013-03-02 20:51:00,
2013-03-02 15:53:00,26.6,12.6,30.07,NNE,22,3.9,5.1,55,0.00,,,0.00,VWS V14.01,2013-03-02 20:53:00,
2013-03-02 15:54:00,27.1,13.6,30.07,NW,321,1.3,4.9,56,0.00,,,0.00,VWS V14.01,2013-03-02 20:54:00,
2013-03-02 15:55:00,26.7,13.4,30.07,North,6,5.1,5.1,57,0.00,,,0.00,VWS V14.01,2013-03-02 20:55:00,
2013-03-02 15:56:00,27.1,13.9,30.06,NNW,348,1.5,3.7,57,0.00,,,0.00,VWS V14.01,2013-03-02 20:56:00,
2013-03-02 15:59:00,25.9,12.8,30.06,NNE,29,7.5,8.1,57,0.00,,,0.00,VWS V14.01,2013-03-02 20:59:00,
2013-03-02 16:00:00,26.0,12.5,30.06,NNE,18,5.9,7.5,56,0.00,,,0.00,VWS V14.01,2013-03-02 21:00:00,
2013-03-02 16:02:00,26.0,12.7,30.06,NNE,13,7.3,7.3,57,0.00,,,0.00,VWS V14.01,2013-03-02 21:02:00,
2013-03-02 16:05:00,25.7,12.4,30.07,NNE,29,6.9,6.9,57,0.00,,,0.00,VWS V14.01,2013-03-02 21:05:00,
2013-03-02 16:06:00,25.7,12.5,30.06,NE,34,5.9,6.9,57,0.00,,,0.00,VWS V14.01,2013-03-02 21:06:00,
2013-03-02 16:07:00,26.0,13.0,30.06,NNE,25,6.9,6.9,57,0.00,,,0.00,VWS V14.01,2013-03-02 21:07:00,
2013-03-02 16:08:00,26.1,13.4,30.07,NNE,33,6.6,6.9,58,0.00,,,0.00,VWS V14.01,2013-03-02 21:08:00,
2013-03-02 16:11:00,26.3,13.6,30.07,North,10,6.8,7.6,58,0.00,,,0.00,VWS V14.01,2013-03-02 21:11:00,
2013-03-02 16:12:00,25.6,12.8,30.06,NE,42,6.1,8.3,58,0.00,,,0.00,VWS V14.01,2013-03-02 21:12:00,
2013-03-02 16:13:00,25.9,13.1,30.07,NNE,24,4.9,6.8,58,0.00,,,0.00,VWS V14.01,2013-03-02 21:13:00,
2013-03-02 16:15:00,25.6,12.4,30.07,NNE,20,6.9,6.9,57,0.00,,,0.00,VWS V14.01,2013-03-02 21:15:00,
2013-03-02 16:17:00,25.8,13.0,30.07,NE,38,6.3,6.3,58,0.00,,,0.00,VWS V14.01,2013-03-02 21:17:00,
2013-03-02 16:18:00,25.5,12.9,30.11,NNE,26,7.6,7.6,58,0.00,,,0.00,VWS V14.01,2013-03-02 21:18:00,
2013-03-02 16:19:00,25.4,12.6,30.07,NE,35,7.3,8.3,58,0.00,,,0.00,VWS V14.01,2013-03-02 21:19:00,
2013-03-02 16:21:00,25.6,12.5,30.08,NNE,16,5.6,5.6,57,0.00,,,0.00,VWS V14.01,2013-03-02 21:21:00,
2013-03-02 16:23:00,25.8,13.0,30.07,NNE,13,4.9,4.9,58,0.00,,,0.00,VWS V14.01,2013-03-02 21:23:00,
2013-03-02 16:24:00,26.0,13.4,30.07,NNE,18,3.2,4.9,58,0.00,,,0.00,VWS V14.01,2013-03-02 21:24:00,
2013-03-02 16:26:00,25.8,13.4,30.07,North,1,4.7,5.2,59,0.00,,,0.00,VWS V14.01,2013-03-02 21:26:00,
2013-03-02 16:29:00,25.6,13.3,30.07,NE,37,6.4,6.4,59,0.00,,,0.00,VWS V14.01,2013-03-02 21:29:00,
2013-03-02 16:30:00,25.7,13.2,30.07,NNE,23,9.0,9.0,59,0.00,,,0.00,VWS V14.01,2013-03-02 21:30:00,
2013-03-02 16:31:00,25.5,13.6,30.07,NE,49,6.8,9.0,60,0.00,,,0.00,VWS V14.01,2013-03-02 21:31:00,
2013-03-02 16:34:00,26.1,14.5,30.08,NE,43,3.4,6.1,61,0.00,,,0.00,VWS V14.01,2013-03-02 21:34:00,
2013-03-02 16:35:00,26.0,13.9,30.08,NNE,17,2.7,3.4,60,0.00,,,0.00,VWS V14.01,2013-03-02 21:35:00,
2013-03-02 16:36:00,25.8,13.8,30.07,NNE,24,6.1,6.1,60,0.00,,,0.00,VWS V14.01,2013-03-02 21:36:00,
2013-03-02 16:37:00,26.1,14.4,30.07,NE,44,2.3,2.3,61,0.00,,,0.00,VWS V14.01,2013-03-02 21:37:00,
2013-03-02 16:40:00,25.8,13.5,30.08,NNE,15,3.5,6.3,59,0.00,,,0.00,VWS V14.01,2013-03-02 21:40:00,
2013-03-02 16:41:00,25.5,13.4,30.07,NE,42,3.9,3.9,60,0.00,,,0.00,VWS V14.01,2013-03-02 21:41:00,
2013-03-02 16:43:00,26.1,13.7,30.08,NNW,346,1.5,4.0,59,0.00,,,0.00,VWS V14.01,2013-03-02 21:43:00,
2013-03-02 16:44:00,25.7,13.7,30.07,NNE,21,5.7,5.7,60,0.00,,,0.00,VWS V14.01,2013-03-02 21:44:00,
2013-03-02 16:46:00,25.6,13.7,30.07,NNE,31,6.8,8.1,60,0.00,,,0.00,VWS V14.01,2013-03-02 21:46:00,
2013-03-02 16:48:00,25.7,14.0,30.07,NE,34,5.2,9.7,61,0.00,,,0.00,VWS V14.01,2013-03-02 21:48:00,
2013-03-02 16:50:00,25.1,13.4,30.07,NE,49,6.8,7.8,61,0.00,,,0.00,VWS V14.01,2013-03-02 21:50:00,
2013-03-02 16:53:00,25.3,13.5,30.07,NE,40,9.0,9.0,60,0.00,,,0.00,VWS V14.01,2013-03-02 21:53:00,
2013-03-02 16:55:00,25.2,13.4,30.08,NNE,22,8.1,8.1,60,0.00,,,0.00,VWS V14.01,2013-03-02 21:55:00,
2013-03-02 16:56:00,25.5,14.1,30.08,North,6,5.2,7.1,61,0.00,,,0.00,VWS V14.01,2013-03-02 21:56:00,
2013-03-02 16:58:00,25.5,14.1,30.08,NNE,24,5.7,5.7,61,0.00,,,0.00,VWS V14.01,2013-03-02 21:58:00,
2013-03-02 17:00:00,25.2,13.8,30.07,NE,36,6.6,6.6,61,0.00,,,0.00,VWS V14.01,2013-03-02 22:00:00,
2013-03-02 17:03:00,25.2,14.0,30.08,NNE,19,5.2,5.2,62,0.00,,,0.00,VWS V14.01,2013-03-02 22:03:00,
2013-03-02 17:05:00,25.4,14.2,30.08,NNE,23,4.4,4.9,62,0.00,,,0.00,VWS V14.01,2013-03-02 22:05:00,
2013-03-02 17:08:00,25.0,13.8,30.08,NNE,29,8.1,8.1,62,0.00,,,0.00,VWS V14.01,2013-03-02 22:08:00,
2013-03-02 17:09:00,25.1,13.9,30.08,NE,42,6.6,8.1,62,0.00,,,0.00,VWS V14.01,2013-03-02 22:09:00,
2013-03-02 17:11:00,25.5,14.7,30.08,NNE,23,4.4,4.4,63,0.00,,,0.00,VWS V14.01,2013-03-02 22:11:00,
2013-03-02 17:12:00,25.6,14.9,30.08,NNE,20,3.9,4.4,63,0.00,,,0.00,VWS V14.01,2013-03-02 22:12:00,
2013-03-02 17:13:00,25.4,14.8,30.09,NNE,30,3.5,5.4,64,0.00,,,0.00,VWS V14.01,2013-03-02 22:13:00,
2013-03-02 17:16:00,25.6,15.0,30.08,North,7,5.1,8.7,64,0.00,,,0.00,VWS V14.01,2013-03-02 22:16:00,
2013-03-02 17:17:00,25.2,14.1,30.07,NNE,16,6.3,6.6,62,0.00,,,0.00,VWS V14.01,2013-03-02 22:17:00,
2013-03-02 17:18:00,25.3,14.4,30.08,NE,43,5.4,7.1,63,0.00,,,0.00,VWS V14.01,2013-03-02 22:18:00,
2013-03-02 17:20:00,25.3,14.8,30.08,NE,43,1.6,3.7,64,0.00,,,0.00,VWS V14.01,2013-03-02 22:20:00,
2013-03-02 17:21:00,25.3,14.5,30.08,North,9,4.4,4.4,63,0.00,,,0.00,VWS V14.01,2013-03-02 22:21:00,
2013-03-02 17:23:00,25.5,14.8,30.08,NNE,18,2.5,2.8,63,0.00,,,0.00,VWS V14.01,2013-03-02 22:23:00,
2013-03-02 17:24:00,25.4,14.6,30.08,NE,42,5.6,5.6,63,0.00,,,0.00,VWS V14.01,2013-03-02 22:24:00,
2013-03-02 17:25:00,25.3,14.6,30.08,North,1,4.2,5.9,63,0.00,,,0.00,VWS V14.01,2013-03-02 22:25:00,
2013-03-02 17:26:00,25.4,14.7,30.08,NE,39,4.2,4.2,64,0.00,,,0.00,VWS V14.01,2013-03-02 22:26:00,
2013-03-02 17:29:00,25.2,14.7,30.08,NNE,14,5.7,5.7,64,0.00,,,0.00,VWS V14.01,2013-03-02 22:29:00,
2013-03-02 17:31:00,25.4,10.6,30.08,NNE,17,5.4,5.4,53,0.00,,,0.00,VWS V14.01,2013-03-02 22:31:00,
2013-03-02 17:32:00,25.4,15.2,30.08,NNW,335,2.5,5.4,65,0.00,,,0.00,VWS V14.01,2013-03-02 22:32:00,
2013-03-02 17:34:00,25.2,14.4,30.09,North,10,3.5,8.0,63,0.00,,,0.00,VWS V14.01,2013-03-02 22:34:00,
2013-03-02 17:36:00,25.2,14.2,30.09,NW,321,3.4,3.4,62,0.00,,,0.00,VWS V14.01,2013-03-02 22:36:00,
2013-03-02 17:37:00,25.1,14.2,30.09,North,6,5.4,5.4,63,0.00,,,0.00,VWS V14.01,2013-03-02 22:37:00,
2013-03-02 17:39:00,25.1,14.4,30.08,NE,37,2.2,4.0,63,0.00,,,0.00,VWS V14.01,2013-03-02 22:39:00,
2013-03-02 17:42:00,25.0,14.4,30.08,NNE,25,2.7,3.2,64,0.00,,,0.00,VWS V14.01,2013-03-02 22:42:00,
2013-03-02 17:43:00,25.3,14.7,30.12,North,360,1.8,1.8,64,0.00,,,0.00,VWS V14.01,2013-03-02 22:43:00,
2013-03-02 17:45:00,25.4,15.1,30.09,NNE,25,0.0,1.5,65,0.00,,,0.00,VWS V14.01,2013-03-02 22:45:00,
2013-03-02 17:48:00,25.1,14.5,30.08,North,351,4.4,4.4,64,0.00,,,0.00,VWS V14.01,2013-03-02 22:48:00,
2013-03-02 17:51:00,25.0,15.2,30.08,NE,37,3.9,4.5,66,0.00,,,0.00,VWS V14.01,2013-03-02 22:51:00,
2013-03-02 17:52:00,25.2,15.3,30.09,NE,40,5.4,5.4,66,0.00,,,0.00,VWS V14.01,2013-03-02 22:52:00,
2013-03-02 17:54:00,25.0,14.8,30.09,NNE,22,5.2,5.2,65,0.00,,,0.00,VWS V14.01,2013-03-02 22:54:00,
2013-03-02 17:57:00,25.0,14.5,30.09,NNE,29,1.6,4.7,64,0.00,,,0.00,VWS V14.01,2013-03-02 22:57:00,
2013-03-02 17:58:00,25.1,15.1,30.09,NNE,14,0.0,2.3,65,0.00,,,0.00,VWS V14.01,2013-03-02 22:58:00,
2013-03-02 17:59:00,25.0,15.1,30.08,NE,34,1.8,3.0,66,0.00,,,0.00,VWS V14.01,2013-03-02 22:59:00,
2013-03-02 18:03:00,24.9,14.5,30.09,North,9,5.2,5.2,64,0.00,,,0.00,VWS V14.01,2013-03-02 23:03:00,
2013-03-02 18:04:00,24.9,14.5,30.09,North,9,5.2,5.2,64,0.00,,,0.00,VWS V14.01,2013-03-02 23:04:00,
2013-03-02 18:06:00,24.9,14.4,30.09,NNE,29,4.5,5.2,64,0.00,,,0.00,VWS V14.01,2013-03-02 23:06:00,
2013-03-02 18:07:00,24.9,14.2,30.09,NNE,17,5.6,5.6,63,0.00,,,0.00,VWS V14.01,2013-03-02 23:07:00,
2013-03-02 18:10:00,24.8,14.4,30.09,NNE,24,4.5,5.6,64,0.00,,,0.00,VWS V14.01,2013-03-02 23:10:00,
2013-03-02 18:12:00,24.9,14.3,30.08,NE,44,6.9,6.9,64,0.00,,,0.00,VWS V14.01,2013-03-02 23:12:00,
2013-03-02 18:13:00,24.8,14.2,30.09,NNE,14,5.2,7.1,64,0.00,,,0.00,VWS V14.01,2013-03-02 23:13:00,
2013-03-02 18:15:00,25.0,14.5,30.09,NNE,30,3.7,7.1,64,0.00,,,0.00,VWS V14.01,2013-03-02 23:15:00,
2013-03-02 18:17:00,24.8,14.4,30.09,NW,326,3.5,7.1,64,0.00,,,0.00,VWS V14.01,2013-03-02 23:17:00,
2013-03-02 18:18:00,24.8,14.3,30.09,NNE,26,5.1,7.1,64,0.00,,,0.00,VWS V14.01,2013-03-02 23:18:00,
2013-03-02 18:20:00,24.8,14.6,30.13,North,10,1.1,7.1,65,0.00,,,0.00,VWS V14.01,2013-03-02 23:20:00,
2013-03-02 18:22:00,24.8,14.9,30.09,North,10,4.5,7.1,65,0.00,,,0.00,VWS V14.01,2013-03-02 23:22:00,
2013-03-02 18:24:00,25.0,15.1,30.09,NNE,25,2.3,7.1,65,0.00,,,0.00,VWS V14.01,2013-03-02 23:24:00,
2013-03-02 18:26:00,24.8,15.0,30.09,NE,34,5.6,7.1,66,0.00,,,0.00,VWS V14.01,2013-03-02 23:26:00,
2013-03-02 18:28:00,24.7,15.1,30.09,NNW,336,0.0,7.1,66,0.00,,,0.00,VWS V14.01,2013-03-02 23:28:00,
2013-03-02 18:29:00,24.7,15.1,30.09,NNW,336,0.0,7.1,66,0.00,,,0.00,VWS V14.01,2013-03-02 23:29:00,
2013-03-02 18:30:00,24.8,15.3,30.09,NNE,33,3.0,7.1,67,0.00,,,0.00,VWS V14.01,2013-03-02 23:30:00,
2013-03-02 18:33:00,24.7,15.1,30.08,NNE,20,2.5,7.1,66,0.00,,,0.00,VWS V14.01,2013-03-02 23:33:00,
2013-03-02 18:34:00,24.7,15.2,30.09,North,10,1.5,7.1,67,0.00,,,0.00,VWS V14.01,2013-03-02 23:34:00,
2013-03-02 18:35:00,24.6,15.3,30.09,North,350,1.1,7.1,67,0.00,,,0.00,VWS V14.01,2013-03-02 23:35:00,
2013-03-02 18:36:00,24.7,15.4,30.09,North,11,4.2,7.1,67,0.00,,,0.00,VWS V14.01,2013-03-02 23:36:00,
2013-03-02 18:39:00,24.6,15.0,30.09,NE,36,3.7,7.1,66,0.00,,,0.00,VWS V14.01,2013-03-02 23:39:00,
2013-03-02 18:41:00,24.7,15.0,30.09,NNE,13,1.5,7.1,66,0.00,,,0.00,VWS V14.01,2013-03-02 23:41:00,
2013-03-02 18:42:00,24.7,15.1,30.10,NNE,31,2.7,7.1,66,0.00,,,0.00,VWS V14.01,2013-03-02 23:42:00,
2013-03-02 18:45:00,24.6,14.7,30.10,NNE,23,1.0,7.1,65,0.00,,,0.00,VWS V14.01,2013-03-02 23:45:00,
2013-03-02 18:46:00,24.6,14.9,30.10,North,7,0.0,7.1,66,0.00,,,0.00,VWS V14.01,2013-03-02 23:46:00,
2013-03-02 18:47:00,24.6,14.9,30.10,North,7,0.0,7.1,66,0.00,,,0.00,VWS V14.01,2013-03-02 23:47:00,
2013-03-02 18:49:00,24.5,14.6,30.10,NNW,339,3.7,7.1,66,0.00,,,0.00,VWS V14.01,2013-03-02 23:49:00,
2013-03-02 18:51:00,24.5,14.4,30.10,North,351,3.4,7.1,65,0.00,,,0.00,VWS V14.01,2013-03-02 23:51:00,
2013-03-02 18:52:00,24.5,14.5,30.10,NNW,345,0.0,7.1,65,0.00,,,0.00,VWS V14.01,2013-03-02 23:52:00,
2013-03-02 18:57:00,24.4,14.8,30.10,NNE,25,4.4,7.1,66,0.00,,,0.00,VWS V14.01,2013-03-02 23:57:00,
2013-03-02 18:59:00,24.3,14.6,30.10,NNE,27,6.4,7.1,66,0.00,,,0.00,VWS V14.01,2013-03-02 23:59:00,
2013-03-02 19:02:00,24.3,14.5,30.10,NNE,25,4.4,4.5,66,0.00,,,0.00,VWS V14.01,2013-03-03 00:02:00,
2013-03-02 19:04:00,24.4,14.7,30.10,NNW,331,0.0,5.6,66,0.00,,,0.00,VWS V14.01,2013-03-03 00:04:00,
2013-03-02 19:05:00,24.4,14.5,30.11,NNW,337,2.0,2.0,66,0.00,,,0.00,VWS V14.01,2013-03-03 00:05:00,
2013-03-02 19:06:00,24.4,15.0,30.10,NE,40,2.2,2.3,67,0.00,,,0.00,VWS V14.01,2013-03-03 00:06:00,
2013-03-02 19:09:00,24.4,14.8,30.10,NNE,23,5.7,5.7,67,0.00,,,0.00,VWS V14.01,2013-03-03 00:09:00,
2013-03-02 19:10:00,24.4,14.7,30.10,NNE,20,6.1,6.1,66,0.00,,,0.00,VWS V14.01,2013-03-03 00:10:00,
2013-03-02 19:12:00,24.4,14.7,30.10,North,5,0.0,0.0,66,0.00,,,0.00,VWS V14.01,2013-03-03 00:12:00,
2013-03-02 19:14:00,24.3,14.7,30.16,North,351,4.4,4.4,66,0.00,,,0.00,VWS V14.01,2013-03-03 00:14:00,
2013-03-02 19:15:00,24.3,14.7,30.12,NNE,16,3.0,4.4,66,0.00,,,0.00,VWS V14.01,2013-03-03 00:15:00,
2013-03-02 19:16:00,24.3,14.9,30.11,NNW,333,0.0,2.0,67,0.00,,,0.00,VWS V14.01,2013-03-03 00:16:00,
2013-03-02 19:18:00,24.3,14.6,30.10,North,352,1.5,1.6,66,0.00,,,0.00,VWS V14.01,2013-03-03 00:18:00,
2013-03-02 19:20:00,24.4,15.0,30.10,NE,38,3.0,3.0,67,0.00,,,0.00,VWS V14.01,2013-03-03 00:20:00,
2013-03-02 19:21:00,24.2,15.0,30.10,North,7,3.4,3.4,67,0.00,,,0.00,VWS V14.01,2013-03-03 00:21:00,
2013-03-02 19:22:00,24.3,15.1,30.10,NNE,17,3.2,3.4,68,0.00,,,0.00,VWS V14.01,2013-03-03 00:22:00,
2013-03-02 19:24:00,24.2,15.5,30.10,NNE,31,2.5,2.5,69,0.00,,,0.00,VWS V14.01,2013-03-03 00:24:00,
2013-03-02 19:25:00,24.3,15.6,30.10,North,4,0.0,3.7,69,0.00,,,0.00,VWS V14.01,2013-03-03 00:25:00,
2013-03-02 19:26:00,24.2,15.4,30.10,NNE,23,2.2,2.2,69,0.00,,,0.00,VWS V14.01,2013-03-03 00:26:00,
2013-03-02 19:28:00,24.3,15.3,30.16,NNW,348,0.0,3.4,68,0.00,,,0.00,VWS V14.01,2013-03-03 00:28:00,
2013-03-02 19:31:00,24.2,15.0,30.10,North,9,0.0,0.0,67,0.00,,,0.00,VWS V14.01,2013-03-03 00:31:00,
2013-03-02 19:34:00,24.3,15.1,30.16,NNW,336,0.0,0.0,68,0.00,,,0.00,VWS V14.01,2013-03-03 00:34:00,
2013-03-02 19:36:00,24.3,15.2,30.11,North,352,0.0,0.0,68,0.00,,,0.00,VWS V14.01,2013-03-03 00:36:00,
2013-03-02 19:37:00,24.3,15.3,30.10,NNE,14,3.9,3.9,68,0.00,,,0.00,VWS V14.01,2013-03-03 00:37:00,
2013-03-02 19:41:00,24.1,15.1,30.10,North,2,2.2,2.2,68,0.00,,,0.00,VWS V14.01,2013-03-03 00:41:00,
2013-03-02 19:42:00,24.1,15.1,30.10,North,7,0.0,2.2,68,0.00,,,0.00,VWS V14.01,2013-03-03 00:42:00,
2013-03-02 19:43:00,24.1,15.7,30.11,NW,326,0.0,0.0,70,0.00,,,0.00,VWS V14.01,2013-03-03 00:43:00,
2013-03-02 19:46:00,24.2,16.0,30.10,NNE,29,1.0,1.0,70,0.00,,,0.00,VWS V14.01,2013-03-03 00:46:00,
2013-03-02 19:47:00,24.1,15.8,30.10,NNW,346,0.0,0.0,70,0.00,,,0.00,VWS V14.01,2013-03-03 00:47:00,
2013-03-02 19:49:00,24.1,15.5,30.12,NNE,22,0.0,0.0,69,0.00,,,0.00,VWS V14.01,2013-03-03 00:49:00,
2013-03-02 19:51:00,24.1,15.7,30.10,NNW,331,0.0,0.0,70,0.00,,,0.00,VWS V14.01,2013-03-03 00:51:00,
2013-03-02 19:53:00,24.1,15.7,30.15,NNW,330,0.0,0.0,70,0.00,,,0.00,VWS V14.01,2013-03-03 00:53:00,
2013-03-02 19:55:00,24.0,15.3,30.11,North,351,0.0,0.0,69,0.00,,,0.00,VWS V14.01,2013-03-03 00:55:00,
2013-03-02 19:56:00,24.1,15.5,30.10,NW,323,0.0,0.0,69,0.00,,,0.00,VWS V14.01,2013-03-03 00:56:00,
2013-03-02 19:58:00,24.0,14.8,30.10,NW,318,3.9,3.9,67,0.00,,,0.00,VWS V14.01,2013-03-03 00:58:00,
2013-03-02 19:59:00,24.0,14.9,30.10,North,3,2.2,3.9,68,0.00,,,0.00,VWS V14.01,2013-03-03 00:59:00,
2013-03-02 20:00:00,24.1,15.0,30.10,North,350,3.0,3.0,68,0.00,,,0.00,VWS V14.01,2013-03-03 01:00:00,
2013-03-02 20:01:00,24.1,14.9,30.09,NNW,337,2.0,3.0,68,0.00,,,0.00,VWS V14.01,2013-03-03 01:01:00,
2013-03-02 20:03:00,23.4,12.0,30.10,North,3,0.0,4.2,61,0.00,,,0.00,VWS V14.01,2013-03-03 01:03:00,
2013-03-02 20:04:00,23.9,15.1,30.10,NW,323,3.2,3.2,69,0.00,,,0.00,VWS V14.01,2013-03-03 01:04:00,
2013-03-02 20:05:00,24.0,15.1,30.12,NW,311,0.0,3.2,68,0.00,,,0.00,VWS V14.01,2013-03-03 01:05:00,
2013-03-02 20:06:00,24.0,15.2,30.11,NNW,336,0.0,0.0,69,0.00,,,0.00,VWS V14.01,2013-03-03 01:06:00,
2013-03-02 20:07:00,24.0,13.1,30.10,NNW,335,0.0,0.0,63,0.00,,,0.00,VWS V14.01,2013-03-03 01:07:00,
2013-03-02 20:10:00,24.0,15.0,30.15,NNW,336,3.4,5.6,68,0.00,,,0.00,VWS V14.01,2013-03-03 01:10:00,
2013-03-02 20:11:00,24.0,14.9,30.10,NNW,337,3.7,3.7,68,0.00,,,0.00,VWS V14.01,2013-03-03 01:11:00,
2013-03-02 20:13:00,23.9,14.6,30.10,NNW,330,3.2,4.0,67,0.00,,,0.00,VWS V14.01,2013-03-03 01:13:00,
2013-03-02 20:15:00,23.9,14.4,30.15,NNE,24,1.3,4.7,67,0.00,,,0.00,VWS V14.01,2013-03-03 01:15:00,
2013-03-02 20:17:00,23.9,14.4,30.10,NE,38,4.0,6.3,67,0.00,,,0.00,VWS V14.01,2013-03-03 01:17:00,
2013-03-02 20:18:00,23.8,11.4,30.10,NNW,346,3.9,3.9,58,0.00,,,0.00,VWS V14.01,2013-03-03 01:18:00,
2013-03-02 20:20:00,23.9,14.2,30.10,NE,38,3.9,3.9,66,0.00,,,0.00,VWS V14.01,2013-03-03 01:20:00,
2013-03-02 20:22:00,23.8,14.6,30.10,NNW,336,3.5,3.9,67,0.00,,,0.00,VWS V14.01,2013-03-03 01:22:00,
2013-03-02 20:23:00,23.8,14.6,30.10,NNW,341,1.0,5.1,67,0.00,,,0.00,VWS V14.01,2013-03-03 01:23:00,
2013-03-02 20:26:00,23.8,14.3,30.10,NNW,341,2.7,3.9,67,0.00,,,0.00,VWS V14.01,2013-03-03 01:26:00,
2013-03-02 20:27:00,23.8,14.5,30.10,West,268,2.0,2.7,67,0.00,,,0.00,VWS V14.01,2013-03-03 01:27:00,
2013-03-02 20:29:00,23.7,14.5,30.10,NW,313,1.1,3.7,67,0.00,,,0.00,VWS V14.01,2013-03-03 01:29:00,
2013-03-02 20:31:00,23.7,14.4,30.11,NNW,328,5.1,5.1,67,0.00,,,0.00,VWS V14.01,2013-03-03 01:31:00,
2013-03-02 20:32:00,23.8,14.3,30.10,NNE,12,3.0,6.6,67,0.00,,,0.00,VWS V14.01,2013-03-03 01:32:00,
2013-03-02 20:34:00,23.8,14.5,30.10,NNW,332,0.0,0.0,67,0.00,,,0.00,VWS V14.01,2013-03-03 01:34:00,
2013-03-02 20:36:00,23.7,14.2,30.10,NNW,339,6.3,6.3,67,0.00,,,0.00,VWS V14.01,2013-03-03 01:36:00,
2013-03-02 20:37:00,23.7,14.2,30.10,North,3,4.4,6.3,67,0.00,,,0.00,VWS V14.01,2013-03-03 01:37:00,
2013-03-02 20:39:00,23.6,14.2,30.10,NE,34,2.2,4.0,67,0.00,,,0.00,VWS V14.01,2013-03-03 01:39:00,
2013-03-02 20:40:00,23.7,14.4,30.10,NNW,335,2.0,2.2,67,0.00,,,0.00,VWS V14.01,2013-03-03 01:40:00,
2013-03-02 20:43:00,23.7,14.3,30.10,North,4,4.7,4.7,67,0.00,,,0.00,VWS V14.01,2013-03-03 01:43:00,
2013-03-02 20:44:00,23.7,14.0,30.10,NNW,346,1.5,2.5,66,0.00,,,0.00,VWS V14.01,2013-03-03 01:44:00,
2013-03-02 20:45:00,23.7,14.0,30.10,NNW,346,1.5,2.5,66,0.00,,,0.00,VWS V14.01,2013-03-03 01:45:00,
2013-03-02 20:46:00,23.6,13.9,30.10,NNE,17,4.2,4.2,66,0.00,,,0.00,VWS V14.01,2013-03-03 01:46:00,
2013-03-02 20:48:00,23.6,13.7,30.10,NNW,337,2.8,3.4,65,0.00,,,0.00,VWS V14.01,2013-03-03 01:48:00,
2013-03-02 20:50:00,23.6,13.6,30.10,North,352,2.5,2.5,65,0.00,,,0.00,VWS V14.01,2013-03-03 01:50:00,
2013-03-02 20:51:00,23.6,13.6,30.10,NE,42,2.7,2.7,65,0.00,,,0.00,VWS V14.01,2013-03-03 01:51:00,
2013-03-02 20:53:00,23.6,13.9,30.15,NNE,26,1.1,6.1,66,0.00,,,0.00,VWS V14.01,2013-03-03 01:53:00,
2013-03-02 20:55:00,23.5,14.5,30.11,North,9,2.0,2.8,68,0.00,,,0.00,VWS V14.01,2013-03-03 01:55:00,
2013-03-02 20:56:00,23.5,14.6,30.10,NNE,13,4.7,4.7,68,0.00,,,0.00,VWS V14.01,2013-03-03 01:56:00,
2013-03-02 20:57:00,23.5,14.6,30.10,NNE,12,2.0,4.7,68,0.00,,,0.00,VWS V14.01,2013-03-03 01:57:00,
2013-03-02 20:59:00,23.5,14.7,30.10,NNE,13,3.9,6.4,69,0.00,,,0.00,VWS V14.01,2013-03-03 01:59:00,
2013-03-02 21:02:00,23.4,14.8,30.10,NW,313,0.0,4.2,69,0.00,,,0.08,VWS V14.01,2013-03-03 02:02:00,
2013-03-02 21:03:00,23.4,14.9,30.10,North,352,0.0,4.2,69,0.00,,,0.00,VWS V14.01,2013-03-03 02:03:00,
2013-03-02 21:04:00,23.4,14.8,30.10,North,7,0.0,4.2,69,0.00,,,0.00,VWS V14.01,2013-03-03 02:04:00,
2013-03-02 21:05:00,23.4,14.8,30.10,North,7,0.0,4.2,69,0.00,,,0.00,VWS V14.01,2013-03-03 02:05:00,
2013-03-02 21:07:00,23.4,15.1,30.10,NNE,26,0.0,4.2,70,0.00,,,0.00,VWS V14.01,2013-03-03 02:07:00,
2013-03-02 21:09:00,23.4,14.9,30.10,NNW,335,2.8,4.2,69,0.00,,,0.00,VWS V14.01,2013-03-03 02:09:00,
2013-03-02 21:13:00,23.4,15.1,30.10,North,351,1.0,4.2,70,0.00,,,0.00,VWS V14.01,2013-03-03 02:13:00,
2013-03-02 21:15:00,23.4,15.0,30.10,North,350,0.0,4.7,70,0.00,,,0.00,VWS V14.01,2013-03-03 02:15:00,
2013-03-02 21:17:00,23.4,15.1,30.10,North,349,0.0,4.7,70,0.00,,,0.00,VWS V14.01,2013-03-03 02:17:00,
2013-03-02 21:18:00,23.5,15.1,30.11,North,351,1.0,4.7,70,0.00,,,0.00,VWS V14.01,2013-03-03 02:18:00,
2013-03-02 21:22:00,23.4,14.8,30.11,North,9,0.0,4.7,69,0.00,,,0.00,VWS V14.01,2013-03-03 02:22:00,
2013-03-02 21:23:00,23.3,14.9,30.11,North,350,1.6,4.7,70,0.00,,,0.00,VWS V14.01,2013-03-03 02:23:00,
2013-03-02 21:27:00,23.4,14.8,30.10,NE,40,0.0,4.9,69,0.00,,,0.00,VWS V14.01,2013-03-03 02:27:00,
2013-03-02 21:28:00,23.4,14.7,30.15,NW,310,3.5,4.9,69,0.00,,,0.00,VWS V14.01,2013-03-03 02:28:00,
2013-03-02 21:29:00,23.4,14.6,30.11,North,352,1.6,4.9,69,0.00,,,0.00,VWS V14.01,2013-03-03 02:29:00,
2013-03-02 21:32:00,23.3,14.6,30.10,North,11,0.0,4.9,69,0.00,,,0.00,VWS V14.01,2013-03-03 02:32:00,
2013-03-02 21:33:00,23.4,14.7,30.11,North,351,0.0,4.9,69,0.00,,,0.00,VWS V14.01,2013-03-03 02:33:00,
2013-03-02 21:35:00,23.4,14.9,30.10,NNW,332,0.0,4.9,69,0.00,,,0.00,VWS V14.01,2013-03-03 02:35:00,
2013-03-02 21:37:00,23.3,14.8,30.11,North,351,0.0,4.9,69,0.00,,,0.00,VWS V14.01,2013-03-03 02:37:00,
2013-03-02 21:38:00,23.4,14.7,30.10,NE,40,4.4,4.9,69,0.00,,,0.00,VWS V14.01,2013-03-03 02:38:00,
2013-03-02 21:39:00,23.4,14.5,30.10,NNW,328,5.4,5.4,68,0.00,,,0.00,VWS V14.01,2013-03-03 02:39:00,
2013-03-02 21:40:00,23.3,14.5,30.10,NW,322,6.6,6.6,69,0.00,,,0.00,VWS V14.01,2013-03-03 02:40:00,
2013-03-02 21:43:00,23.3,14.6,30.10,NNW,329,4.9,6.6,69,0.00,,,0.00,VWS V14.01,2013-03-03 02:43:00,
2013-03-02 21:46:00,23.3,14.8,30.15,NNW,330,2.0,6.6,69,0.00,,,0.00,VWS V14.01,2013-03-03 02:46:00,
2013-03-02 21:47:00,23.2,11.1,30.11,NW,322,5.1,6.6,59,0.00,,,0.00,VWS V14.01,2013-03-03 02:47:00,
2013-03-02 21:51:00,23.0,14.5,30.11,NW,324,6.8,8.0,70,0.00,,,0.00,VWS V14.01,2013-03-03 02:51:00,
2013-03-02 21:52:00,23.1,14.9,30.11,NNW,327,3.0,8.0,70,0.00,,,0.00,VWS V14.01,2013-03-03 02:52:00,
2013-03-02 21:54:00,23.1,14.2,30.11,NNW,327,3.0,8.0,68,0.00,,,0.00,VWS V14.01,2013-03-03 02:54:00,
2013-03-02 21:56:00,23.0,13.7,30.11,NE,35,3.9,8.0,67,0.00,,,0.00,VWS V14.01,2013-03-03 02:56:00,
2013-03-02 21:58:00,23.0,11.5,30.11,NNW,348,2.8,8.0,61,0.00,,,0.00,VWS V14.01,2013-03-03 02:58:00,
2013-03-02 22:00:00,22.8,13.6,30.11,NNW,335,4.4,8.0,67,0.00,,,0.00,VWS V14.01,2013-03-03 03:00:00,
2013-03-02 22:05:00,22.7,13.8,30.11,NW,309,3.2,3.4,68,0.00,,,0.00,VWS V14.01,2013-03-03 03:05:00,
2013-03-02 22:07:00,22.7,13.6,30.11,NNW,337,3.9,4.0,68,0.00,,,0.00,VWS V14.01,2013-03-03 03:07:00,
2013-03-02 22:10:00,22.6,13.6,30.11,NNW,341,0.0,3.9,68,0.00,,,0.00,VWS V14.01,2013-03-03 03:10:00,
2013-03-02 22:11:00,22.6,13.6,30.11,NNW,341,0.0,3.9,68,0.00,,,0.00,VWS V14.01,2013-03-03 03:11:00,
2013-03-02 22:12:00,22.6,13.6,30.16,NNW,342,2.5,4.7,68,0.00,,,0.00,VWS V14.01,2013-03-03 03:12:00,
2013-03-02 22:16:00,22.5,13.5,30.11,NW,325,1.8,5.1,68,0.00,,,0.00,VWS V14.01,2013-03-03 03:16:00,
2013-03-02 22:18:00,22.6,13.7,30.11,NE,37,1.3,1.3,68,0.00,,,0.00,VWS V14.01,2013-03-03 03:18:00,
2013-03-02 22:19:00,22.5,13.6,30.11,NE,42,4.2,4.2,68,0.00,,,0.00,VWS V14.01,2013-03-03 03:19:00,
2013-03-02 22:22:00,22.5,13.1,30.10,NNW,334,4.0,4.0,67,0.00,,,0.00,VWS V14.01,2013-03-03 03:22:00,
2013-03-02 22:23:00,22.5,13.1,30.12,North,2,2.0,3.9,67,0.00,,,0.00,VWS V14.01,2013-03-03 03:23:00,
2013-03-02 22:24:00,22.5,13.1,30.11,North,352,0.0,2.0,67,0.00,,,0.00,VWS V14.01,2013-03-03 03:24:00,
2013-03-02 22:27:00,22.5,13.3,30.11,WNW,294,1.5,1.5,67,0.00,,,0.00,VWS V14.01,2013-03-03 03:27:00,
2013-03-02 22:28:00,22.4,13.4,30.10,NW,314,0.0,1.5,68,0.00,,,0.00,VWS V14.01,2013-03-03 03:28:00,
2013-03-02 22:29:00,22.4,13.3,30.11,NW,324,1.8,1.8,68,0.00,,,0.00,VWS V14.01,2013-03-03 03:29:00,
2013-03-02 22:30:00,22.4,13.2,30.11,NW,326,1.5,1.8,67,0.00,,,0.00,VWS V14.01,2013-03-03 03:30:00,
2013-03-02 22:32:00,22.4,13.3,30.10,NE,39,2.8,3.4,68,0.00,,,0.00,VWS V14.01,2013-03-03 03:32:00,
2013-03-02 22:33:00,22.3,13.3,30.11,NNW,343,0.0,3.2,68,0.00,,,0.00,VWS V14.01,2013-03-03 03:33:00,
2013-03-02 22:34:00,22.4,13.4,30.11,North,349,3.7,3.7,68,0.00,,,0.00,VWS V14.01,2013-03-03 03:34:00,
2013-03-02 22:36:00,22.3,13.6,30.12,North,360,2.0,2.2,69,0.00,,,0.00,VWS V14.01,2013-03-03 03:36:00,
2013-03-02 22:38:00,22.3,13.5,30.10,NNE,14,3.7,4.9,68,0.00,,,0.00,VWS V14.01,2013-03-03 03:38:00,
2013-03-02 22:40:00,22.2,13.5,30.10,North,2,0.0,0.0,69,0.00,,,0.00,VWS V14.01,2013-03-03 03:40:00,
2013-03-02 22:42:00,22.2,13.6,30.10,North,350,0.0,1.5,69,0.00,,,0.00,VWS V14.01,2013-03-03 03:42:00,
2013-03-02 22:45:00,22.1,13.7,30.10,NNW,339,0.0,0.0,69,0.00,,,0.00,VWS V14.01,2013-03-03 03:45:00,
2013-03-02 22:46:00,22.1,13.7,30.10,NNW,341,0.0,0.0,70,0.00,,,0.00,VWS V14.01,2013-03-03 03:46:00,
2013-03-02 22:47:00,22.1,13.8,30.10,NNW,327,1.5,1.5,70,0.00,,,0.00,VWS V14.01,2013-03-03 03:47:00,
2013-03-02 22:50:00,22.1,13.7,30.10,NNW,333,1.6,3.4,70,0.00,,,0.00,VWS V14.01,2013-03-03 03:50:00,
2013-03-02 22:51:00,22.1,13.7,30.10,NNW,333,1.6,3.4,70,0.00,,,0.00,VWS V14.01,2013-03-03 03:51:00,
2013-03-02 22:52:00,22.0,13.7,30.10,NNW,332,0.0,3.4,70,0.00,,,0.00,VWS V14.01,2013-03-03 03:52:00,
2013-03-02 22:53:00,21.9,13.7,30.10,NW,326,2.0,2.0,70,0.00,,,0.00,VWS V14.01,2013-03-03 03:53:00,
2013-03-02 22:57:00,21.8,13.8,30.10,NW,313,2.3,2.3,71,0.00,,,0.00,VWS V14.01,2013-03-03 03:57:00,
2013-03-02 22:58:00,21.7,13.8,30.10,NNW,342,2.0,3.2,71,0.00,,,0.00,VWS V14.01,2013-03-03 03:58:00,
2013-03-02 22:59:00,21.7,13.8,30.10,NNW,348,0.0,3.2,71,0.00,,,0.00,VWS V14.01,2013-03-03 03:59:00,
2013-03-02 23:02:00,21.5,13.9,30.10,WNW,301,2.7,4.0,72,0.00,,,0.00,VWS V14.01,2013-03-03 04:02:00,
2013-03-02 23:03:00,21.4,13.8,30.10,NW,311,2.8,2.8,72,0.00,,,0.00,VWS V14.01,2013-03-03 04:03:00,
2013-03-02 23:05:00,21.2,13.6,30.10,NW,309,4.0,4.4,72,0.00,,,0.00,VWS V14.01,2013-03-03 04:05:00,
2013-03-02 23:07:00,21.3,13.7,30.11,NW,318,3.2,3.5,72,0.00,,,0.00,VWS V14.01,2013-03-03 04:07:00,
2013-03-02 23:08:00,21.0,13.5,30.10,NNW,328,3.5,3.5,72,0.00,,,0.00,VWS V14.01,2013-03-03 04:08:00,
2013-03-02 23:10:00,21.1,13.9,30.10,NW,326,3.7,3.7,73,0.00,,,0.00,VWS V14.01,2013-03-03 04:10:00,
2013-03-02 23:13:00,21.0,13.6,30.10,NW,324,3.5,3.5,73,0.00,,,0.00,VWS V14.01,2013-03-03 04:13:00,
2013-03-02 23:14:00,20.9,13.6,30.10,NNW,337,3.2,3.5,73,0.00,,,0.00,VWS V14.01,2013-03-03 04:14:00,
2013-03-02 23:18:00,20.8,13.5,30.15,NNW,331,3.0,6.4,73,0.00,,,0.00,VWS V14.01,2013-03-03 04:18:00,
2013-03-02 23:19:00,20.8,13.5,30.15,NNW,331,3.0,6.4,73,0.00,,,0.00,VWS V14.01,2013-03-03 04:19:00,
2013-03-02 23:23:00,20.4,13.4,30.10,NW,324,2.2,2.5,74,0.00,,,0.00,VWS V14.01,2013-03-03 04:23:00,
2013-03-02 23:24:00,20.7,13.8,30.11,NNW,337,3.5,3.5,74,0.00,,,0.00,VWS V14.01,2013-03-03 04:24:00,
2013-03-02 23:26:00,20.4,13.6,30.11,NW,323,3.0,3.0,75,0.00,,,0.00,VWS V14.01,2013-03-03 04:26:00,
2013-03-02 23:28:00,20.5,13.9,30.11,NW,307,0.0,0.0,75,0.00,,,0.00,VWS V14.01,2013-03-03 04:28:00,
2013-03-02 23:29:00,20.4,13.8,30.10,NNW,329,0.0,1.0,75,0.00,,,0.00,VWS V14.01,2013-03-03 04:29:00,
2013-03-02 23:30:00,20.4,13.8,30.10,NNW,329,0.0,1.0,75,0.00,,,0.00,VWS V14.01,2013-03-03 04:30:00,
2013-03-02 23:31:00,20.5,14.1,30.10,NW,308,1.5,1.5,76,0.00,,,0.00,VWS V14.01,2013-03-03 04:31:00,
2013-03-02 23:33:00,20.2,13.9,30.11,NNW,332,2.5,2.5,76,0.00,,,0.00,VWS V14.01,2013-03-03 04:33:00,
2013-03-02 23:35:00,20.6,14.2,30.11,NNW,338,3.4,3.4,76,0.00,,,0.00,VWS V14.01,2013-03-03 04:35:00,
2013-03-02 23:36:00,20.5,13.9,30.11,NNW,336,1.8,4.0,75,0.00,,,0.00,VWS V14.01,2013-03-03 04:36:00,
2013-03-02 23:37:00,20.4,13.9,30.11,NNW,329,0.0,0.0,75,0.00,,,0.00,VWS V14.01,2013-03-03 04:37:00,
2013-03-02 23:39:00,20.4,13.9,30.11,NNW,346,1.1,4.0,76,0.00,,,0.00,VWS V14.01,2013-03-03 04:39:00,
2013-03-02 23:41:00,20.4,13.9,30.12,NNW,336,0.0,4.4,75,0.00,,,0.00,VWS V14.01,2013-03-03 04:41:00,
2013-03-02 23:43:00,20.5,13.9,30.11,NW,308,2.3,2.3,75,0.00,,,0.00,VWS V14.01,2013-03-03 04:43:00,
2013-03-02 23:44:00,20.5,14.0,30.10,North,350,2.3,2.3,76,0.00,,,0.00,VWS V14.01,2013-03-03 04:44:00,
2013-03-02 23:45:00,20.5,14.0,30.10,NW,306,1.0,2.3,75,0.00,,,0.00,VWS V14.01,2013-03-03 04:45:00,
2013-03-02 23:47:00,20.4,13.9,30.10,NW,314,3.2,3.2,76,0.00,,,0.00,VWS V14.01,2013-03-03 04:47:00,
2013-03-02 23:48:00,20.5,14.2,30.11,NW,305,4.5,4.5,76,0.00,,,0.00,VWS V14.01,2013-03-03 04:48:00,
2013-03-02 23:50:00,20.4,13.9,30.11,NW,322,3.0,4.7,75,0.00,,,0.00,VWS V14.01,2013-03-03 04:50:00,
2013-03-02 23:52:00,20.4,13.9,30.11,NNW,330,3.5,4.9,75,0.00,,,0.00,VWS V14.01,2013-03-03 04:52:00,
2013-03-02 23:54:00,20.5,14.0,30.11,NW,313,3.9,3.9,76,0.00,,,0.00,VWS V14.01,2013-03-03 04:54:00,
2013-03-02 23:55:00,20.4,13.9,30.11,NNW,329,3.4,4.0,76,0.00,,,0.00,VWS V14.01,2013-03-03 04:55:00,
2013-03-02 23:58:00,20.5,14.1,30.10,NW,321,4.0,4.0,76,0.00,,,0.00,VWS V14.01,2013-03-03 04:58:00,
2013-03-02 23:59:00,20.5,13.9,30.10,NW,317,3.2,4.0,75,0.00,,,0.00,VWS V14.01,2013-03-03 04:59:00,